<?xml version="1.0" encoding="UTF-8" standalone="no" ?>
<gpx xmlns="http://www.topografix.com/GPX/1/1" xmlns:xsi="http://www.w3.org/2001/XMLSchema-instance" xsi:schemaLocation="http://www.topografix.com/GPX/1/1 http://www.topografix.com/GPX/1/1/gpx.xsd" version="1.1" creator="VisuGPX - https://www.visugpx.com">
  <metadata>
    <name>GR5 - Thann à Malvaux : Partie 2</name>
    <desc><![CDATA[GR5 - Thann à Malvaux : Partie 2]]></desc>
  </metadata>
  <trk>
    <name><![CDATA[Move]]></name>
    <trkseg>
      <trkpt lat="47.82998" lon="7.00163">
        <ele>1179</ele>
        <time>2016-07-17T12:46:02.136Z</time>
      </trkpt>
      <trkpt lat="47.82999" lon="7.00167">
        <ele>1179</ele>
        <time>2016-07-17T12:46:06.136Z</time>
      </trkpt>
      <trkpt lat="47.83001" lon="7.00175">
        <ele>1179</ele>
        <time>2016-07-17T12:46:13.136Z</time>
      </trkpt>
      <trkpt lat="47.83003" lon="7.00179">
        <ele>1179</ele>
        <time>2016-07-17T12:46:24.136Z</time>
      </trkpt>
      <trkpt lat="47.83007" lon="7.00178">
        <ele>1179</ele>
        <time>2016-07-17T12:46:42.136Z</time>
      </trkpt>
      <trkpt lat="47.83011" lon="7.00178">
        <ele>1179</ele>
        <time>2016-07-17T12:46:48.136Z</time>
      </trkpt>
      <trkpt lat="47.83015" lon="7.00173">
        <ele>1179</ele>
        <time>2016-07-17T12:46:56.136Z</time>
      </trkpt>
      <trkpt lat="47.8302" lon="7.00168">
        <ele>1179</ele>
        <time>2016-07-17T12:47:07.136Z</time>
      </trkpt>
      <trkpt lat="47.83024" lon="7.00163">
        <ele>1179</ele>
        <time>2016-07-17T12:47:12.136Z</time>
      </trkpt>
      <trkpt lat="47.83026" lon="7.00155">
        <ele>1179</ele>
        <time>2016-07-17T12:47:17.136Z</time>
      </trkpt>
      <trkpt lat="47.83028" lon="7.00149">
        <ele>1179</ele>
        <time>2016-07-17T12:47:27.136Z</time>
      </trkpt>
      <trkpt lat="47.8303" lon="7.00143">
        <ele>1179</ele>
        <time>2016-07-17T12:47:32.136Z</time>
      </trkpt>
      <trkpt lat="47.83034" lon="7.00139">
        <ele>1179</ele>
        <time>2016-07-17T12:47:40.136Z</time>
      </trkpt>
      <trkpt lat="47.83039" lon="7.00137">
        <ele>1175.6568</ele>
        <time>2016-07-17T12:47:46.136Z</time>
      </trkpt>
      <trkpt lat="47.83044" lon="7.00131">
        <ele>1171.1672</ele>
        <time>2016-07-17T12:47:54.136Z</time>
      </trkpt>
      <trkpt lat="47.83048" lon="7.00126">
        <ele>1169</ele>
        <time>2016-07-17T12:48:02.136Z</time>
      </trkpt>
      <trkpt lat="47.83053" lon="7.00131">
        <ele>1168.0448</ele>
        <time>2016-07-17T12:48:16.136Z</time>
      </trkpt>
      <trkpt lat="47.83056" lon="7.0014">
        <ele>1167</ele>
        <time>2016-07-17T12:48:25.136Z</time>
      </trkpt>
      <trkpt lat="47.83061" lon="7.0015">
        <ele>1165.5672</ele>
        <time>2016-07-17T12:48:36.136Z</time>
      </trkpt>
      <trkpt lat="47.83063" lon="7.00162">
        <ele>1161.9672</ele>
        <time>2016-07-17T12:48:48.136Z</time>
      </trkpt>
      <trkpt lat="47.83066" lon="7.00175">
        <ele>1159.4448</ele>
        <time>2016-07-17T12:48:59.136Z</time>
      </trkpt>
      <trkpt lat="47.83074" lon="7.00166">
        <ele>1156.8448</ele>
        <time>2016-07-17T12:49:12.136Z</time>
      </trkpt>
      <trkpt lat="47.83081" lon="7.00159">
        <ele>1154.0448</ele>
        <time>2016-07-17T12:49:26.136Z</time>
      </trkpt>
      <trkpt lat="47.83085" lon="7.00146">
        <ele>1152.4448</ele>
        <time>2016-07-17T12:49:34.136Z</time>
      </trkpt>
      <trkpt lat="47.83086" lon="7.00135">
        <ele>1151.0448</ele>
        <time>2016-07-17T12:49:41.136Z</time>
      </trkpt>
      <trkpt lat="47.8309" lon="7.00126">
        <ele>1149.8448</ele>
        <time>2016-07-17T12:49:47.136Z</time>
      </trkpt>
      <trkpt lat="47.83093" lon="7.00115">
        <ele>1147.8448</ele>
        <time>2016-07-17T12:49:57.136Z</time>
      </trkpt>
      <trkpt lat="47.83095" lon="7.00104">
        <ele>1146.6224</ele>
        <time>2016-07-17T12:50:05.136Z</time>
      </trkpt>
      <trkpt lat="47.83094" lon="7.00094">
        <ele>1146.0224</ele>
        <time>2016-07-17T12:50:11.136Z</time>
      </trkpt>
      <trkpt lat="47.83093" lon="7.00083">
        <ele>1145.5224</ele>
        <time>2016-07-17T12:50:16.136Z</time>
      </trkpt>
      <trkpt lat="47.83092" lon="7.00072">
        <ele>1144.7224</ele>
        <time>2016-07-17T12:50:24.136Z</time>
      </trkpt>
      <trkpt lat="47.8309" lon="7.00054">
        <ele>1143.0448</ele>
        <time>2016-07-17T12:50:36.136Z</time>
      </trkpt>
      <trkpt lat="47.83091" lon="7.00044">
        <ele>1141.7672</ele>
        <time>2016-07-17T12:50:42.136Z</time>
      </trkpt>
      <trkpt lat="47.83088" lon="7.00033">
        <ele>1139.9672</ele>
        <time>2016-07-17T12:50:48.136Z</time>
      </trkpt>
      <trkpt lat="47.83089" lon="7.00024">
        <ele>1138.112</ele>
        <time>2016-07-17T12:50:53.136Z</time>
      </trkpt>
      <trkpt lat="47.83091" lon="7.00014">
        <ele>1133.9224</ele>
        <time>2016-07-17T12:51:02.136Z</time>
      </trkpt>
      <trkpt lat="47.8309" lon="7.00004">
        <ele>1132.4672</ele>
        <time>2016-07-17T12:51:13.136Z</time>
      </trkpt>
      <trkpt lat="47.83094" lon="6.99993">
        <ele>1129.8448</ele>
        <time>2016-07-17T12:51:22.136Z</time>
      </trkpt>
      <trkpt lat="47.83098" lon="6.99983">
        <ele>1128.0448</ele>
        <time>2016-07-17T12:51:31.136Z</time>
      </trkpt>
      <trkpt lat="47.83103" lon="6.99974">
        <ele>1125.9672</ele>
        <time>2016-07-17T12:51:38.136Z</time>
      </trkpt>
      <trkpt lat="47.83105" lon="6.99962">
        <ele>1123.4896</ele>
        <time>2016-07-17T12:51:45.136Z</time>
      </trkpt>
      <trkpt lat="47.83108" lon="6.99952">
        <ele>1120.4448</ele>
        <time>2016-07-17T12:51:54.136Z</time>
      </trkpt>
      <trkpt lat="47.83111" lon="6.99941">
        <ele>1119.4448</ele>
        <time>2016-07-17T12:51:59.136Z</time>
      </trkpt>
      <trkpt lat="47.83116" lon="6.99932">
        <ele>1118.7224</ele>
        <time>2016-07-17T12:52:04.136Z</time>
      </trkpt>
      <trkpt lat="47.8312" lon="6.99923">
        <ele>1118.0224</ele>
        <time>2016-07-17T12:52:11.136Z</time>
      </trkpt>
      <trkpt lat="47.83122" lon="6.99914">
        <ele>1116.8448</ele>
        <time>2016-07-17T12:52:17.136Z</time>
      </trkpt>
      <trkpt lat="47.83128" lon="6.99907">
        <ele>1115.6448</ele>
        <time>2016-07-17T12:52:23.136Z</time>
      </trkpt>
      <trkpt lat="47.83132" lon="6.99899">
        <ele>1114.6448</ele>
        <time>2016-07-17T12:52:28.136Z</time>
      </trkpt>
      <trkpt lat="47.83138" lon="6.99891">
        <ele>1114</ele>
        <time>2016-07-17T12:52:34.136Z</time>
      </trkpt>
      <trkpt lat="47.83144" lon="6.99884">
        <ele>1114</ele>
        <time>2016-07-17T12:52:40.136Z</time>
      </trkpt>
      <trkpt lat="47.83149" lon="6.99877">
        <ele>1112.5672</ele>
        <time>2016-07-17T12:52:46.136Z</time>
      </trkpt>
      <trkpt lat="47.83153" lon="6.99868">
        <ele>1110.4672</ele>
        <time>2016-07-17T12:52:53.136Z</time>
      </trkpt>
      <trkpt lat="47.83158" lon="6.99861">
        <ele>1108.9672</ele>
        <time>2016-07-17T12:52:58.136Z</time>
      </trkpt>
      <trkpt lat="47.83163" lon="6.99852">
        <ele>1107.7224</ele>
        <time>2016-07-17T12:53:04.136Z</time>
      </trkpt>
      <trkpt lat="47.83166" lon="6.99844">
        <ele>1107.2224</ele>
        <time>2016-07-17T12:53:09.136Z</time>
      </trkpt>
      <trkpt lat="47.8317" lon="6.99837">
        <ele>1106.0448</ele>
        <time>2016-07-17T12:53:16.136Z</time>
      </trkpt>
      <trkpt lat="47.83173" lon="6.9983">
        <ele>1104.7672</ele>
        <time>2016-07-17T12:53:22.136Z</time>
      </trkpt>
      <trkpt lat="47.83177" lon="6.99822">
        <ele>1102.9672</ele>
        <time>2016-07-17T12:53:28.136Z</time>
      </trkpt>
      <trkpt lat="47.83179" lon="6.99814">
        <ele>1100.4896</ele>
        <time>2016-07-17T12:53:35.136Z</time>
      </trkpt>
      <trkpt lat="47.8318" lon="6.99804">
        <ele>1098.4896</ele>
        <time>2016-07-17T12:53:40.136Z</time>
      </trkpt>
      <trkpt lat="47.83181" lon="6.99785">
        <ele>1096.0448</ele>
        <time>2016-07-17T12:53:51.136Z</time>
      </trkpt>
      <trkpt lat="47.8318" lon="6.99775">
        <ele>1093.6672</ele>
        <time>2016-07-17T12:53:59.136Z</time>
      </trkpt>
      <trkpt lat="47.83179" lon="6.99767">
        <ele>1092.4224</ele>
        <time>2016-07-17T12:54:17.136Z</time>
      </trkpt>
      <trkpt lat="47.8318" lon="6.99761">
        <ele>1091.6448</ele>
        <time>2016-07-17T12:54:23.136Z</time>
      </trkpt>
      <trkpt lat="47.83178" lon="6.99755">
        <ele>1090.6448</ele>
        <time>2016-07-17T12:54:28.136Z</time>
      </trkpt>
      <trkpt lat="47.83177" lon="6.99748">
        <ele>1089.6448</ele>
        <time>2016-07-17T12:54:33.136Z</time>
      </trkpt>
      <trkpt lat="47.83175" lon="6.99741">
        <ele>1088.6448</ele>
        <time>2016-07-17T12:54:38.136Z</time>
      </trkpt>
      <trkpt lat="47.83172" lon="6.99734">
        <ele>1087.2896</ele>
        <time>2016-07-17T12:54:43.136Z</time>
      </trkpt>
      <trkpt lat="47.83172" lon="6.99725">
        <ele>1085.2896</ele>
        <time>2016-07-17T12:54:48.136Z</time>
      </trkpt>
      <trkpt lat="47.83171" lon="6.99716">
        <ele>1083.4448</ele>
        <time>2016-07-17T12:54:54.136Z</time>
      </trkpt>
      <trkpt lat="47.83167" lon="6.99708">
        <ele>1082.2448</ele>
        <time>2016-07-17T12:55:00.136Z</time>
      </trkpt>
      <trkpt lat="47.83165" lon="6.99698">
        <ele>1082</ele>
        <time>2016-07-17T12:55:05.136Z</time>
      </trkpt>
      <trkpt lat="47.83162" lon="6.99691">
        <ele>1082</ele>
        <time>2016-07-17T12:55:10.136Z</time>
      </trkpt>
      <trkpt lat="47.83158" lon="6.99686">
        <ele>1080.8672</ele>
        <time>2016-07-17T12:55:15.136Z</time>
      </trkpt>
      <trkpt lat="47.83153" lon="6.99683">
        <ele>1079</ele>
        <time>2016-07-17T12:55:31.136Z</time>
      </trkpt>
      <trkpt lat="47.83148" lon="6.99684">
        <ele>1078.4224</ele>
        <time>2016-07-17T12:55:37.136Z</time>
      </trkpt>
      <trkpt lat="47.83142" lon="6.9968">
        <ele>1077.8224</ele>
        <time>2016-07-17T12:55:43.136Z</time>
      </trkpt>
      <trkpt lat="47.83136" lon="6.99677">
        <ele>1076.0448</ele>
        <time>2016-07-17T12:55:56.136Z</time>
      </trkpt>
      <trkpt lat="47.8313" lon="6.99677">
        <ele>1075</ele>
        <time>2016-07-17T12:56:07.136Z</time>
      </trkpt>
      <trkpt lat="47.83134" lon="6.99674">
        <ele>1076.7776</ele>
        <time>2016-07-17T12:56:39.136Z</time>
      </trkpt>
      <trkpt lat="47.83142" lon="6.99674">
        <ele>1077.3776</ele>
        <time>2016-07-17T12:56:45.136Z</time>
      </trkpt>
      <trkpt lat="47.83148" lon="6.99679">
        <ele>1078.0776</ele>
        <time>2016-07-17T12:56:52.136Z</time>
      </trkpt>
      <trkpt lat="47.83151" lon="6.99681">
        <ele>1078.6776</ele>
        <time>2016-07-17T12:56:58.136Z</time>
      </trkpt>
      <trkpt lat="47.83153" lon="6.99679">
        <ele>1078.4224</ele>
        <time>2016-07-17T12:57:27.136Z</time>
      </trkpt>
      <trkpt lat="47.83155" lon="6.99676">
        <ele>1078</ele>
        <time>2016-07-17T12:57:32.136Z</time>
      </trkpt>
      <trkpt lat="47.83159" lon="6.99668">
        <ele>1078</ele>
        <time>2016-07-17T12:57:37.136Z</time>
      </trkpt>
      <trkpt lat="47.83165" lon="6.9966">
        <ele>1078</ele>
        <time>2016-07-17T12:57:43.136Z</time>
      </trkpt>
      <trkpt lat="47.83172" lon="6.99647">
        <ele>1078</ele>
        <time>2016-07-17T12:57:53.236Z</time>
      </trkpt>
      <trkpt lat="47.8318" lon="6.99637">
        <ele>1078</ele>
        <time>2016-07-17T12:58:01.136Z</time>
      </trkpt>
      <trkpt lat="47.83188" lon="6.99629">
        <ele>1078</ele>
        <time>2016-07-17T12:58:09.136Z</time>
      </trkpt>
      <trkpt lat="47.83195" lon="6.99619">
        <ele>1077.4224</ele>
        <time>2016-07-17T12:58:17.136Z</time>
      </trkpt>
      <trkpt lat="47.83204" lon="6.99607">
        <ele>1076.5224</ele>
        <time>2016-07-17T12:58:26.136Z</time>
      </trkpt>
      <trkpt lat="47.83212" lon="6.99597">
        <ele>1075.04560128</ele>
        <time>2016-07-17T12:58:36.132Z</time>
      </trkpt>
      <trkpt lat="47.83219" lon="6.99583">
        <ele>1073.4224</ele>
        <time>2016-07-17T12:58:47.136Z</time>
      </trkpt>
      <trkpt lat="47.8322" lon="6.99573">
        <ele>1073</ele>
        <time>2016-07-17T12:58:52.140Z</time>
      </trkpt>
      <trkpt lat="47.83226" lon="6.99557">
        <ele>1073</ele>
        <time>2016-07-17T12:59:01.127Z</time>
      </trkpt>
      <trkpt lat="47.8323" lon="6.99544">
        <ele>1073</ele>
        <time>2016-07-17T12:59:09.133Z</time>
      </trkpt>
      <trkpt lat="47.83241" lon="6.99536">
        <ele>1072.42230016</ele>
        <time>2016-07-17T12:59:17.137Z</time>
      </trkpt>
      <trkpt lat="47.83253" lon="6.99527">
        <ele>1071.62200064</ele>
        <time>2016-07-17T12:59:25.140Z</time>
      </trkpt>
      <trkpt lat="47.83262" lon="6.99512">
        <ele>1070.5224</ele>
        <time>2016-07-17T12:59:36.136Z</time>
      </trkpt>
      <trkpt lat="47.83267" lon="6.99516">
        <ele>1069.8448</ele>
        <time>2016-07-17T12:59:52.136Z</time>
      </trkpt>
      <trkpt lat="47.83274" lon="6.99506">
        <ele>1068</ele>
        <time>2016-07-17T13:00:04.240Z</time>
      </trkpt>
      <trkpt lat="47.83287" lon="6.99487">
        <ele>1067.02189952</ele>
        <time>2016-07-17T13:00:21.141Z</time>
      </trkpt>
      <trkpt lat="47.83313" lon="6.9948">
        <ele>1065.9224</ele>
        <time>2016-07-17T13:00:32.136Z</time>
      </trkpt>
      <trkpt lat="47.83333" lon="6.99469">
        <ele>1065</ele>
        <time>2016-07-17T13:00:45.132Z</time>
      </trkpt>
      <trkpt lat="47.83347" lon="6.99455">
        <ele>1064.82290048</ele>
        <time>2016-07-17T13:00:53.131Z</time>
      </trkpt>
      <trkpt lat="47.83351" lon="6.99448">
        <ele>1064</ele>
        <time>2016-07-17T13:01:08.136Z</time>
      </trkpt>
      <trkpt lat="47.83362" lon="6.99441">
        <ele>1063.52249984</ele>
        <time>2016-07-17T13:01:16.135Z</time>
      </trkpt>
      <trkpt lat="47.83376" lon="6.99435">
        <ele>1062.6432</ele>
        <time>2016-07-17T13:01:23.144Z</time>
      </trkpt>
      <trkpt lat="47.83393" lon="6.99423">
        <ele>1060.52249984</ele>
        <time>2016-07-17T13:01:36.135Z</time>
      </trkpt>
      <trkpt lat="47.83402" lon="6.99413">
        <ele>1059.8224</ele>
        <time>2016-07-17T13:01:53.136Z</time>
      </trkpt>
      <trkpt lat="47.83414" lon="6.99415">
        <ele>1059</ele>
        <time>2016-07-17T13:02:05.136Z</time>
      </trkpt>
      <trkpt lat="47.83428" lon="6.99409">
        <ele>1058.4224</ele>
        <time>2016-07-17T13:02:17.136Z</time>
      </trkpt>
      <trkpt lat="47.83442" lon="6.99408">
        <ele>1057.6224</ele>
        <time>2016-07-17T13:02:25.136Z</time>
      </trkpt>
      <trkpt lat="47.83455" lon="6.99403">
        <ele>1055.62200064</ele>
        <time>2016-07-17T13:02:45.140Z</time>
      </trkpt>
      <trkpt lat="47.83459" lon="6.99386">
        <ele>1054.978576124</ele>
        <time>2016-07-17T13:03:11.135Z</time>
      </trkpt>
      <trkpt lat="47.83463" lon="6.99366">
        <ele>1054.9213083366</ele>
        <time>2016-07-17T13:03:22.136Z</time>
      </trkpt>
      <trkpt lat="47.83469" lon="6.99368">
        <ele>1053.12150016</ele>
        <time>2016-07-17T13:03:40.135Z</time>
      </trkpt>
      <trkpt lat="47.83477" lon="6.99358">
        <ele>1051.24140032</ele>
        <time>2016-07-17T13:03:55.143Z</time>
      </trkpt>
      <trkpt lat="47.83486" lon="6.99344">
        <ele>1050</ele>
        <time>2016-07-17T13:04:04.136Z</time>
      </trkpt>
      <trkpt lat="47.8349" lon="6.99328">
        <ele>1048.04240128</ele>
        <time>2016-07-17T13:04:21.138Z</time>
      </trkpt>
      <trkpt lat="47.83504" lon="6.99312">
        <ele>1045.8216784245</ele>
        <time>2016-07-17T13:04:33.135Z</time>
      </trkpt>
      <trkpt lat="47.8351" lon="6.993">
        <ele>1045.0222778892</ele>
        <time>2016-07-17T13:04:41.137Z</time>
      </trkpt>
      <trkpt lat="47.83505" lon="6.99292">
        <ele>1044.221521931</ele>
        <time>2016-07-17T13:04:49.137Z</time>
      </trkpt>
      <trkpt lat="47.83521" lon="6.99278">
        <ele>1041.92140032</ele>
        <time>2016-07-17T13:05:02.136Z</time>
      </trkpt>
      <trkpt lat="47.83534" lon="6.99259">
        <ele>1041.02100096</ele>
        <time>2016-07-17T13:05:11.140Z</time>
      </trkpt>
      <trkpt lat="47.83544" lon="6.99233">
        <ele>1040.1219008</ele>
        <time>2016-07-17T13:05:20.131Z</time>
      </trkpt>
      <trkpt lat="47.83554" lon="6.99218">
        <ele>1037.96509952</ele>
        <time>2016-07-17T13:05:28.133Z</time>
      </trkpt>
      <trkpt lat="47.83553" lon="6.99203">
        <ele>1035.24420096</ele>
        <time>2016-07-17T13:05:40.129Z</time>
      </trkpt>
      <trkpt lat="47.83558" lon="6.99201">
        <ele>1034.22200064</ele>
        <time>2016-07-17T13:05:49.130Z</time>
      </trkpt>
      <trkpt lat="47.83559" lon="6.99188">
        <ele>1032.84339968</ele>
        <time>2016-07-17T13:05:57.133Z</time>
      </trkpt>
      <trkpt lat="47.83581" lon="6.99175">
        <ele>1032</ele>
        <time>2016-07-17T13:06:05.137Z</time>
      </trkpt>
      <trkpt lat="47.83602" lon="6.99164">
        <ele>1030.84420096</ele>
        <time>2016-07-17T13:06:17.129Z</time>
      </trkpt>
      <trkpt lat="47.83609" lon="6.99157">
        <ele>1026.64339968</ele>
        <time>2016-07-17T13:06:33.133Z</time>
      </trkpt>
      <trkpt lat="47.83627" lon="6.99149">
        <ele>1025.24260096</ele>
        <time>2016-07-17T13:06:40.137Z</time>
      </trkpt>
      <trkpt lat="47.8365" lon="6.99141">
        <ele>1019.04420096</ele>
        <time>2016-07-17T13:07:06.129Z</time>
      </trkpt>
      <trkpt lat="47.83662" lon="6.99135">
        <ele>1015.96360192</ele>
        <time>2016-07-17T13:07:18.138Z</time>
      </trkpt>
      <trkpt lat="47.83677" lon="6.99132">
        <ele>1012.56509952</ele>
        <time>2016-07-17T13:07:46.133Z</time>
      </trkpt>
      <trkpt lat="47.83691" lon="6.99115">
        <ele>1010.4447560263</ele>
        <time>2016-07-17T13:07:54.129Z</time>
      </trkpt>
      <trkpt lat="47.83704" lon="6.99104">
        <ele>1008.92269952</ele>
        <time>2016-07-17T13:08:02.133Z</time>
      </trkpt>
      <trkpt lat="47.83708" lon="6.99103">
        <ele>1006.9224</ele>
        <time>2016-07-17T13:08:42.136Z</time>
      </trkpt>
      <trkpt lat="47.83716" lon="6.99093">
        <ele>1005.22220032</ele>
        <time>2016-07-17T13:08:59.138Z</time>
      </trkpt>
      <trkpt lat="47.83729" lon="6.99079">
        <ele>1005.02259968</ele>
        <time>2016-07-17T13:10:01.134Z</time>
      </trkpt>
      <trkpt lat="47.8374" lon="6.99073">
        <ele>1004.22220032</ele>
        <time>2016-07-17T13:10:09.138Z</time>
      </trkpt>
      <trkpt lat="47.83747" lon="6.99072">
        <ele>1003.32310016</ele>
        <time>2016-07-17T13:10:18.129Z</time>
      </trkpt>
      <trkpt lat="47.83745" lon="6.99078">
        <ele>1003</ele>
        <time>2016-07-17T13:10:26.130Z</time>
      </trkpt>
      <trkpt lat="47.83755" lon="6.99072">
        <ele>1003.6776</ele>
        <time>2016-07-17T13:10:58.136Z</time>
      </trkpt>
      <trkpt lat="47.83762" lon="6.99065">
        <ele>1004</ele>
        <time>2016-07-17T13:11:07.128Z</time>
      </trkpt>
      <trkpt lat="47.83771" lon="6.99065">
        <ele>1004</ele>
        <time>2016-07-17T13:11:15.140Z</time>
      </trkpt>
      <trkpt lat="47.83784" lon="6.99056">
        <ele>1004</ele>
        <time>2016-07-17T13:11:24.136Z</time>
      </trkpt>
      <trkpt lat="47.83799" lon="6.9905">
        <ele>1004</ele>
        <time>2016-07-17T13:11:32.132Z</time>
      </trkpt>
      <trkpt lat="47.8382" lon="6.99054">
        <ele>1003.72269952</ele>
        <time>2016-07-17T13:11:44.133Z</time>
      </trkpt>
      <trkpt lat="47.83829" lon="6.99062">
        <ele>1001.56779904</ele>
        <time>2016-07-17T13:11:56.134Z</time>
      </trkpt>
      <trkpt lat="47.83831" lon="6.99073">
        <ele>1000.37789952</ele>
        <time>2016-07-17T13:12:25.139Z</time>
      </trkpt>
      <trkpt lat="47.83839" lon="6.9908">
        <ele>1000.01159936</ele>
        <time>2016-07-17T13:12:41.244Z</time>
      </trkpt>
      <trkpt lat="47.83846" lon="6.99079">
        <ele>999.9776</ele>
        <time>2016-07-17T13:13:01.136Z</time>
      </trkpt>
      <trkpt lat="47.83837" lon="6.99075">
        <ele>1000</ele>
        <time>2016-07-17T13:13:39.239Z</time>
      </trkpt>
      <trkpt lat="47.83829" lon="6.99085">
        <ele>1000</ele>
        <time>2016-07-17T13:13:48.237Z</time>
      </trkpt>
      <trkpt lat="47.83824" lon="6.99086">
        <ele>1000</ele>
        <time>2016-07-17T13:14:01.231Z</time>
      </trkpt>
      <trkpt lat="47.83816" lon="6.99096">
        <ele>1000</ele>
        <time>2016-07-17T13:14:31.136Z</time>
      </trkpt>
      <trkpt lat="47.83818" lon="6.99088">
        <ele>999</ele>
        <time>2016-07-17T13:14:43.136Z</time>
      </trkpt>
      <trkpt lat="47.83806" lon="6.99097">
        <ele>1002.3227543778</ele>
        <time>2016-07-17T13:17:28.136Z</time>
      </trkpt>
      <trkpt lat="47.83824" lon="6.99083">
        <ele>1001.6258896443</ele>
        <time>2016-07-17T13:18:05.136Z</time>
      </trkpt>
      <trkpt lat="47.83821" lon="6.99094">
        <ele>1000</ele>
        <time>2016-07-17T13:18:30.136Z</time>
      </trkpt>
      <trkpt lat="47.83817" lon="6.9909">
        <ele>1001</ele>
        <time>2016-07-17T13:19:20.136Z</time>
      </trkpt>
      <trkpt lat="47.83824" lon="6.99092">
        <ele>1001</ele>
        <time>2016-07-17T13:23:35.245Z</time>
      </trkpt>
      <trkpt lat="47.83832" lon="6.99078">
        <ele>1001</ele>
        <time>2016-07-17T13:42:48.136Z</time>
      </trkpt>
      <trkpt lat="47.83844" lon="6.99063">
        <ele>1001</ele>
        <time>2016-07-17T13:43:10.136Z</time>
      </trkpt>
      <trkpt lat="47.83855" lon="6.9906">
        <ele>1001</ele>
        <time>2016-07-17T13:43:26.136Z</time>
      </trkpt>
      <trkpt lat="47.83867" lon="6.99055">
        <ele>1001</ele>
        <time>2016-07-17T13:43:55.136Z</time>
      </trkpt>
      <trkpt lat="47.83882" lon="6.99037">
        <ele>1001</ele>
        <time>2016-07-17T13:44:06.136Z</time>
      </trkpt>
      <trkpt lat="47.83895" lon="6.99031">
        <ele>1001</ele>
        <time>2016-07-17T13:44:18.136Z</time>
      </trkpt>
      <trkpt lat="47.83905" lon="6.99026">
        <ele>1001</ele>
        <time>2016-07-17T13:44:26.136Z</time>
      </trkpt>
      <trkpt lat="47.83917" lon="6.99014">
        <ele>1001</ele>
        <time>2016-07-17T13:44:38.136Z</time>
      </trkpt>
      <trkpt lat="47.83925" lon="6.99008">
        <ele>1001</ele>
        <time>2016-07-17T13:44:46.136Z</time>
      </trkpt>
      <trkpt lat="47.83939" lon="6.99001">
        <ele>1000.5224</ele>
        <time>2016-07-17T13:44:58.136Z</time>
      </trkpt>
      <trkpt lat="47.83949" lon="6.98996">
        <ele>1000</ele>
        <time>2016-07-17T13:45:07.136Z</time>
      </trkpt>
      <trkpt lat="47.83958" lon="6.9899">
        <ele>1000</ele>
        <time>2016-07-17T13:45:15.136Z</time>
      </trkpt>
      <trkpt lat="47.83968" lon="6.98984">
        <ele>1000</ele>
        <time>2016-07-17T13:45:24.136Z</time>
      </trkpt>
      <trkpt lat="47.83982" lon="6.98973">
        <ele>1000</ele>
        <time>2016-07-17T13:45:36.136Z</time>
      </trkpt>
      <trkpt lat="47.8399" lon="6.98965">
        <ele>1000</ele>
        <time>2016-07-17T13:45:44.136Z</time>
      </trkpt>
      <trkpt lat="47.83999" lon="6.98956">
        <ele>1000</ele>
        <time>2016-07-17T13:45:52.136Z</time>
      </trkpt>
      <trkpt lat="47.84007" lon="6.98947">
        <ele>1000</ele>
        <time>2016-07-17T13:46:00.136Z</time>
      </trkpt>
      <trkpt lat="47.84016" lon="6.98938">
        <ele>1000</ele>
        <time>2016-07-17T13:46:08.136Z</time>
      </trkpt>
      <trkpt lat="47.84023" lon="6.98928">
        <ele>999.7224</ele>
        <time>2016-07-17T13:46:16.136Z</time>
      </trkpt>
      <trkpt lat="47.84026" lon="6.98921">
        <ele>999</ele>
        <time>2016-07-17T13:46:31.136Z</time>
      </trkpt>
      <trkpt lat="47.84029" lon="6.98908">
        <ele>999</ele>
        <time>2016-07-17T13:46:44.136Z</time>
      </trkpt>
      <trkpt lat="47.84031" lon="6.9889">
        <ele>999</ele>
        <time>2016-07-17T13:46:54.136Z</time>
      </trkpt>
      <trkpt lat="47.84031" lon="6.98877">
        <ele>999</ele>
        <time>2016-07-17T13:47:02.136Z</time>
      </trkpt>
      <trkpt lat="47.84034" lon="6.98868">
        <ele>997</ele>
        <time>2016-07-17T13:47:55.136Z</time>
      </trkpt>
      <trkpt lat="47.84045" lon="6.98853">
        <ele>997</ele>
        <time>2016-07-17T13:48:14.136Z</time>
      </trkpt>
      <trkpt lat="47.84051" lon="6.98841">
        <ele>997</ele>
        <time>2016-07-17T13:48:26.136Z</time>
      </trkpt>
      <trkpt lat="47.84058" lon="6.98824">
        <ele>997</ele>
        <time>2016-07-17T13:48:42.136Z</time>
      </trkpt>
      <trkpt lat="47.84063" lon="6.98806">
        <ele>997</ele>
        <time>2016-07-17T13:48:54.136Z</time>
      </trkpt>
      <trkpt lat="47.84068" lon="6.98788">
        <ele>997</ele>
        <time>2016-07-17T13:49:02.136Z</time>
      </trkpt>
      <trkpt lat="47.84076" lon="6.98776">
        <ele>995.89070893609</ele>
        <time>2016-07-17T13:49:26.136Z</time>
      </trkpt>
      <trkpt lat="47.8408" lon="6.98756">
        <ele>993</ele>
        <time>2016-07-17T13:49:34.135Z</time>
      </trkpt>
      <trkpt lat="47.84078" lon="6.98738">
        <ele>992.3224</ele>
        <time>2016-07-17T13:49:50.136Z</time>
      </trkpt>
      <trkpt lat="47.84082" lon="6.98723">
        <ele>992</ele>
        <time>2016-07-17T13:49:58.136Z</time>
      </trkpt>
      <trkpt lat="47.84083" lon="6.98706">
        <ele>992</ele>
        <time>2016-07-17T13:50:14.136Z</time>
      </trkpt>
      <trkpt lat="47.84085" lon="6.9869">
        <ele>992</ele>
        <time>2016-07-17T13:50:22.136Z</time>
      </trkpt>
      <trkpt lat="47.84084" lon="6.98673">
        <ele>991</ele>
        <time>2016-07-17T13:50:34.136Z</time>
      </trkpt>
      <trkpt lat="47.8409" lon="6.98661">
        <ele>991</ele>
        <time>2016-07-17T13:50:42.136Z</time>
      </trkpt>
      <trkpt lat="47.84098" lon="6.9864">
        <ele>990.3224</ele>
        <time>2016-07-17T13:50:50.136Z</time>
      </trkpt>
      <trkpt lat="47.84102" lon="6.98622">
        <ele>990.4776</ele>
        <time>2016-07-17T13:50:58.136Z</time>
      </trkpt>
      <trkpt lat="47.84111" lon="6.98606">
        <ele>991</ele>
        <time>2016-07-17T13:51:14.137Z</time>
      </trkpt>
      <trkpt lat="47.84119" lon="6.98595">
        <ele>991</ele>
        <time>2016-07-17T13:51:22.136Z</time>
      </trkpt>
      <trkpt lat="47.84134" lon="6.98584">
        <ele>991</ele>
        <time>2016-07-17T13:51:34.136Z</time>
      </trkpt>
      <trkpt lat="47.84138" lon="6.98565">
        <ele>991</ele>
        <time>2016-07-17T13:51:42.136Z</time>
      </trkpt>
      <trkpt lat="47.84141" lon="6.98547">
        <ele>991</ele>
        <time>2016-07-17T13:51:50.136Z</time>
      </trkpt>
      <trkpt lat="47.84143" lon="6.98529">
        <ele>990.5224</ele>
        <time>2016-07-17T13:51:58.136Z</time>
      </trkpt>
      <trkpt lat="47.84143" lon="6.9851">
        <ele>989.7224</ele>
        <time>2016-07-17T13:52:06.136Z</time>
      </trkpt>
      <trkpt lat="47.84143" lon="6.98494">
        <ele>988.5224</ele>
        <time>2016-07-17T13:52:18.136Z</time>
      </trkpt>
      <trkpt lat="47.84141" lon="6.98473">
        <ele>987</ele>
        <time>2016-07-17T13:52:34.136Z</time>
      </trkpt>
      <trkpt lat="47.84135" lon="6.98455">
        <ele>987.2776</ele>
        <time>2016-07-17T13:52:46.136Z</time>
      </trkpt>
      <trkpt lat="47.84131" lon="6.98428">
        <ele>988.2328</ele>
        <time>2016-07-17T13:52:54.136Z</time>
      </trkpt>
      <trkpt lat="47.84131" lon="6.98408">
        <ele>991</ele>
        <time>2016-07-17T13:53:06.136Z</time>
      </trkpt>
      <trkpt lat="47.84115" lon="6.98403">
        <ele>991.8776</ele>
        <time>2016-07-17T13:53:22.136Z</time>
      </trkpt>
      <trkpt lat="47.84106" lon="6.98393">
        <ele>994.0776</ele>
        <time>2016-07-17T13:53:34.136Z</time>
      </trkpt>
      <trkpt lat="47.84109" lon="6.98374">
        <ele>995</ele>
        <time>2016-07-17T13:53:50.136Z</time>
      </trkpt>
      <trkpt lat="47.8411" lon="6.98356">
        <ele>994.0448</ele>
        <time>2016-07-17T13:53:58.136Z</time>
      </trkpt>
      <trkpt lat="47.84104" lon="6.98337">
        <ele>993</ele>
        <time>2016-07-17T13:54:06.136Z</time>
      </trkpt>
      <trkpt lat="47.84096" lon="6.98318">
        <ele>992.52192207506</ele>
        <time>2016-07-17T13:54:18.136Z</time>
      </trkpt>
      <trkpt lat="47.84095" lon="6.983">
        <ele>991.72140032</ele>
        <time>2016-07-17T13:54:26.136Z</time>
      </trkpt>
      <trkpt lat="47.84094" lon="6.98273">
        <ele>991</ele>
        <time>2016-07-17T13:54:38.136Z</time>
      </trkpt>
      <trkpt lat="47.84098" lon="6.98241">
        <ele>991</ele>
        <time>2016-07-17T13:54:46.136Z</time>
      </trkpt>
      <trkpt lat="47.84101" lon="6.98225">
        <ele>992.67859968</ele>
        <time>2016-07-17T13:55:10.136Z</time>
      </trkpt>
      <trkpt lat="47.841" lon="6.98199">
        <ele>993</ele>
        <time>2016-07-17T13:55:22.136Z</time>
      </trkpt>
      <trkpt lat="47.84096" lon="6.98178">
        <ele>993.82140032</ele>
        <time>2016-07-17T13:55:35.136Z</time>
      </trkpt>
      <trkpt lat="47.84088" lon="6.98168">
        <ele>992</ele>
        <time>2016-07-17T13:56:21.136Z</time>
      </trkpt>
      <trkpt lat="47.84089" lon="6.98142">
        <ele>991.12140032</ele>
        <time>2016-07-17T13:56:32.136Z</time>
      </trkpt>
      <trkpt lat="47.84086" lon="6.98127">
        <ele>990.32140032</ele>
        <time>2016-07-17T13:56:40.136Z</time>
      </trkpt>
      <trkpt lat="47.84088" lon="6.98088">
        <ele>988.04280064</ele>
        <time>2016-07-17T13:56:53.136Z</time>
      </trkpt>
      <trkpt lat="47.84089" lon="6.98071">
        <ele>987.04280064</ele>
        <time>2016-07-17T13:56:58.136Z</time>
      </trkpt>
      <trkpt lat="47.84088" lon="6.98051">
        <ele>985.62290868526</ele>
        <time>2016-07-17T13:57:07.136Z</time>
      </trkpt>
      <trkpt lat="47.84087" lon="6.98033">
        <ele>984.77530216868</ele>
        <time>2016-07-17T13:57:14.136Z</time>
      </trkpt>
      <trkpt lat="47.84091" lon="6.98019">
        <ele>982.36566361446</ele>
        <time>2016-07-17T13:57:22.136Z</time>
      </trkpt>
      <trkpt lat="47.84107" lon="6.98009">
        <ele>982</ele>
        <time>2016-07-17T13:57:30.237Z</time>
      </trkpt>
      <trkpt lat="47.84119" lon="6.97997">
        <ele>981.52130048</ele>
        <time>2016-07-17T13:57:38.137Z</time>
      </trkpt>
      <trkpt lat="47.84126" lon="6.97983">
        <ele>979.64280064</ele>
        <time>2016-07-17T13:57:50.136Z</time>
      </trkpt>
      <trkpt lat="47.84138" lon="6.97966">
        <ele>976.36420096</ele>
        <time>2016-07-17T13:58:02.136Z</time>
      </trkpt>
      <trkpt lat="47.84141" lon="6.97948">
        <ele>975.31129984</ele>
        <time>2016-07-17T13:58:10.237Z</time>
      </trkpt>
      <trkpt lat="47.84151" lon="6.97935">
        <ele>974.04280064</ele>
        <time>2016-07-17T13:58:18.136Z</time>
      </trkpt>
      <trkpt lat="47.84156" lon="6.97921">
        <ele>972.16420096</ele>
        <time>2016-07-17T13:58:26.136Z</time>
      </trkpt>
      <trkpt lat="47.84157" lon="6.97905">
        <ele>969.76420096</ele>
        <time>2016-07-17T13:58:34.136Z</time>
      </trkpt>
      <trkpt lat="47.84162" lon="6.97888">
        <ele>966.44280064</ele>
        <time>2016-07-17T13:58:46.136Z</time>
      </trkpt>
      <trkpt lat="47.84168" lon="6.9787">
        <ele>964.44280064</ele>
        <time>2016-07-17T13:58:56.136Z</time>
      </trkpt>
      <trkpt lat="47.84173" lon="6.97857">
        <ele>962.92140032</ele>
        <time>2016-07-17T13:59:04.136Z</time>
      </trkpt>
      <trkpt lat="47.8418" lon="6.97832">
        <ele>962</ele>
        <time>2016-07-17T13:59:21.136Z</time>
      </trkpt>
      <trkpt lat="47.84179" lon="6.9781">
        <ele>960.22140032</ele>
        <time>2016-07-17T13:59:41.136Z</time>
      </trkpt>
      <trkpt lat="47.84173" lon="6.97798">
        <ele>960</ele>
        <time>2016-07-17T14:00:02.136Z</time>
      </trkpt>
      <trkpt lat="47.84179" lon="6.97782">
        <ele>958.92140032</ele>
        <time>2016-07-17T14:00:14.136Z</time>
      </trkpt>
      <trkpt lat="47.84175" lon="6.97761">
        <ele>958.12140032</ele>
        <time>2016-07-17T14:00:22.136Z</time>
      </trkpt>
      <trkpt lat="47.84174" lon="6.97746">
        <ele>958.47859968</ele>
        <time>2016-07-17T14:00:38.136Z</time>
      </trkpt>
      <trkpt lat="47.84176" lon="6.9773">
        <ele>960</ele>
        <time>2016-07-17T14:01:39.136Z</time>
      </trkpt>
      <trkpt lat="47.84179" lon="6.97709">
        <ele>959.62140032</ele>
        <time>2016-07-17T14:01:47.136Z</time>
      </trkpt>
      <trkpt lat="47.84185" lon="6.97693">
        <ele>960.13579904</ele>
        <time>2016-07-17T14:01:57.136Z</time>
      </trkpt>
      <trkpt lat="47.84192" lon="6.97677">
        <ele>960.64280064</ele>
        <time>2016-07-17T14:02:10.136Z</time>
      </trkpt>
      <trkpt lat="47.84197" lon="6.97662">
        <ele>962.95719936</ele>
        <time>2016-07-17T14:02:28.136Z</time>
      </trkpt>
      <trkpt lat="47.84197" lon="6.97642">
        <ele>965.35719936</ele>
        <time>2016-07-17T14:02:40.136Z</time>
      </trkpt>
      <trkpt lat="47.84192" lon="6.97622">
        <ele>966</ele>
        <time>2016-07-17T14:02:53.136Z</time>
      </trkpt>
      <trkpt lat="47.84196" lon="6.97603">
        <ele>966</ele>
        <time>2016-07-17T14:03:01.136Z</time>
      </trkpt>
      <trkpt lat="47.84193" lon="6.97588">
        <ele>966.57859968</ele>
        <time>2016-07-17T14:03:09.136Z</time>
      </trkpt>
      <trkpt lat="47.84187" lon="6.97576">
        <ele>967</ele>
        <time>2016-07-17T14:03:15.136Z</time>
      </trkpt>
      <trkpt lat="47.84176" lon="6.97558">
        <ele>967.17859968</ele>
        <time>2016-07-17T14:03:25.136Z</time>
      </trkpt>
      <trkpt lat="47.8417" lon="6.97544">
        <ele>968</ele>
        <time>2016-07-17T14:03:35.136Z</time>
      </trkpt>
      <trkpt lat="47.8417" lon="6.97524">
        <ele>967.02140032</ele>
        <time>2016-07-17T14:03:53.136Z</time>
      </trkpt>
      <trkpt lat="47.84161" lon="6.97512">
        <ele>968.55719936</ele>
        <time>2016-07-17T14:04:01.136Z</time>
      </trkpt>
      <trkpt lat="47.84157" lon="6.97492">
        <ele>969</ele>
        <time>2016-07-17T14:04:13.136Z</time>
      </trkpt>
      <trkpt lat="47.84154" lon="6.97474">
        <ele>969.87859968</ele>
        <time>2016-07-17T14:04:22.136Z</time>
      </trkpt>
      <trkpt lat="47.84149" lon="6.97455">
        <ele>972.27859968</ele>
        <time>2016-07-17T14:04:36.136Z</time>
      </trkpt>
      <trkpt lat="47.84143" lon="6.97436">
        <ele>973.77859968</ele>
        <time>2016-07-17T14:04:51.136Z</time>
      </trkpt>
      <trkpt lat="47.84139" lon="6.97414">
        <ele>974.75719936</ele>
        <time>2016-07-17T14:05:07.136Z</time>
      </trkpt>
      <trkpt lat="47.84134" lon="6.97396">
        <ele>976.27859968</ele>
        <time>2016-07-17T14:05:16.136Z</time>
      </trkpt>
      <trkpt lat="47.84127" lon="6.97377">
        <ele>977</ele>
        <time>2016-07-17T14:05:28.136Z</time>
      </trkpt>
      <trkpt lat="47.84121" lon="6.9736">
        <ele>977</ele>
        <time>2016-07-17T14:05:40.136Z</time>
      </trkpt>
      <trkpt lat="47.84116" lon="6.97347">
        <ele>977.47859968</ele>
        <time>2016-07-17T14:05:48.136Z</time>
      </trkpt>
      <trkpt lat="47.84115" lon="6.97327">
        <ele>979.35719936</ele>
        <time>2016-07-17T14:06:00.136Z</time>
      </trkpt>
      <trkpt lat="47.84113" lon="6.97304">
        <ele>981</ele>
        <time>2016-07-17T14:06:16.136Z</time>
      </trkpt>
      <trkpt lat="47.8411" lon="6.97282">
        <ele>981</ele>
        <time>2016-07-17T14:06:28.136Z</time>
      </trkpt>
      <trkpt lat="47.84108" lon="6.97264">
        <ele>981.67859968</ele>
        <time>2016-07-17T14:06:40.136Z</time>
      </trkpt>
      <trkpt lat="47.84106" lon="6.9725">
        <ele>982</ele>
        <time>2016-07-17T14:06:48.136Z</time>
      </trkpt>
      <trkpt lat="47.84105" lon="6.97232">
        <ele>982</ele>
        <time>2016-07-17T14:06:58.136Z</time>
      </trkpt>
      <trkpt lat="47.84105" lon="6.97214">
        <ele>982.47807792494</ele>
        <time>2016-07-17T14:07:08.136Z</time>
      </trkpt>
      <trkpt lat="47.84105" lon="6.97195">
        <ele>983</ele>
        <time>2016-07-17T14:07:16.136Z</time>
      </trkpt>
      <trkpt lat="47.84102" lon="6.97176">
        <ele>983.95719936</ele>
        <time>2016-07-17T14:07:28.136Z</time>
      </trkpt>
      <trkpt lat="47.84103" lon="6.97157">
        <ele>985</ele>
        <time>2016-07-17T14:07:40.136Z</time>
      </trkpt>
      <trkpt lat="47.84106" lon="6.97143">
        <ele>985.47859968</ele>
        <time>2016-07-17T14:07:48.136Z</time>
      </trkpt>
      <trkpt lat="47.84109" lon="6.97122">
        <ele>986.67859968</ele>
        <time>2016-07-17T14:08:00.136Z</time>
      </trkpt>
      <trkpt lat="47.84106" lon="6.97102">
        <ele>987</ele>
        <time>2016-07-17T14:08:12.136Z</time>
      </trkpt>
      <trkpt lat="47.84108" lon="6.97082">
        <ele>987.15719936</ele>
        <time>2016-07-17T14:08:24.136Z</time>
      </trkpt>
      <trkpt lat="47.84108" lon="6.97065">
        <ele>989.27859968</ele>
        <time>2016-07-17T14:08:36.136Z</time>
      </trkpt>
      <trkpt lat="47.8411" lon="6.97045">
        <ele>990.47859968</ele>
        <time>2016-07-17T14:08:48.136Z</time>
      </trkpt>
      <trkpt lat="47.84108" lon="6.97025">
        <ele>991</ele>
        <time>2016-07-17T14:09:00.136Z</time>
      </trkpt>
      <trkpt lat="47.84111" lon="6.96998">
        <ele>992.35719936</ele>
        <time>2016-07-17T14:09:15.136Z</time>
      </trkpt>
      <trkpt lat="47.84111" lon="6.96983">
        <ele>993.95719936</ele>
        <time>2016-07-17T14:09:23.136Z</time>
      </trkpt>
      <trkpt lat="47.84115" lon="6.96966">
        <ele>995.55719936</ele>
        <time>2016-07-17T14:09:36.136Z</time>
      </trkpt>
      <trkpt lat="47.84117" lon="6.96949">
        <ele>997.47859968</ele>
        <time>2016-07-17T14:09:48.136Z</time>
      </trkpt>
      <trkpt lat="47.84117" lon="6.96933">
        <ele>998.37859968</ele>
        <time>2016-07-17T14:09:57.136Z</time>
      </trkpt>
      <trkpt lat="47.84116" lon="6.96916">
        <ele>999</ele>
        <time>2016-07-17T14:10:05.136Z</time>
      </trkpt>
      <trkpt lat="47.84122" lon="6.96901">
        <ele>999.37859968</ele>
        <time>2016-07-17T14:10:17.136Z</time>
      </trkpt>
      <trkpt lat="47.84124" lon="6.96882">
        <ele>1000</ele>
        <time>2016-07-17T14:10:29.136Z</time>
      </trkpt>
      <trkpt lat="47.84126" lon="6.96867">
        <ele>1000.75719936</ele>
        <time>2016-07-17T14:10:37.136Z</time>
      </trkpt>
      <trkpt lat="47.84129" lon="6.9685">
        <ele>1002.75719936</ele>
        <time>2016-07-17T14:10:57.136Z</time>
      </trkpt>
      <trkpt lat="47.84133" lon="6.96832">
        <ele>1004.57859968</ele>
        <time>2016-07-17T14:11:09.136Z</time>
      </trkpt>
      <trkpt lat="47.84136" lon="6.96816">
        <ele>1005</ele>
        <time>2016-07-17T14:11:17.136Z</time>
      </trkpt>
      <trkpt lat="47.84142" lon="6.96793">
        <ele>1007</ele>
        <time>2016-07-17T14:11:34.136Z</time>
      </trkpt>
      <trkpt lat="47.84147" lon="6.96775">
        <ele>1007</ele>
        <time>2016-07-17T14:11:46.136Z</time>
      </trkpt>
      <trkpt lat="47.84153" lon="6.96758">
        <ele>1007.95719936</ele>
        <time>2016-07-17T14:11:58.136Z</time>
      </trkpt>
      <trkpt lat="47.84159" lon="6.96743">
        <ele>1009.67859968</ele>
        <time>2016-07-17T14:12:10.136Z</time>
      </trkpt>
      <trkpt lat="47.84163" lon="6.96721">
        <ele>1010.8777222386</ele>
        <time>2016-07-17T14:12:22.136Z</time>
      </trkpt>
      <trkpt lat="47.84169" lon="6.96706">
        <ele>1011</ele>
        <time>2016-07-17T14:12:31.136Z</time>
      </trkpt>
      <trkpt lat="47.84176" lon="6.96685">
        <ele>1012</ele>
        <time>2016-07-17T14:12:47.136Z</time>
      </trkpt>
      <trkpt lat="47.84181" lon="6.96672">
        <ele>1011.64280064</ele>
        <time>2016-07-17T14:12:55.136Z</time>
      </trkpt>
      <trkpt lat="47.84183" lon="6.96653">
        <ele>1009.62140032</ele>
        <time>2016-07-17T14:13:07.136Z</time>
      </trkpt>
      <trkpt lat="47.84187" lon="6.96639">
        <ele>1008.46420096</ele>
        <time>2016-07-17T14:13:15.136Z</time>
      </trkpt>
      <trkpt lat="47.84195" lon="6.96628">
        <ele>1005.4647360527</ele>
        <time>2016-07-17T14:13:25.136Z</time>
      </trkpt>
      <trkpt lat="47.84205" lon="6.9661">
        <ele>1003</ele>
        <time>2016-07-17T14:13:36.136Z</time>
      </trkpt>
      <trkpt lat="47.84215" lon="6.96598">
        <ele>1001.8448</ele>
        <time>2016-07-17T14:13:49.136Z</time>
      </trkpt>
      <trkpt lat="47.84226" lon="6.96587">
        <ele>1000.6224</ele>
        <time>2016-07-17T14:13:57.136Z</time>
      </trkpt>
      <trkpt lat="47.84237" lon="6.96583">
        <ele>1000</ele>
        <time>2016-07-17T14:14:05.136Z</time>
      </trkpt>
      <trkpt lat="47.84248" lon="6.96577">
        <ele>1000</ele>
        <time>2016-07-17T14:14:13.136Z</time>
      </trkpt>
      <trkpt lat="47.84262" lon="6.96569">
        <ele>999</ele>
        <time>2016-07-17T14:14:25.136Z</time>
      </trkpt>
      <trkpt lat="47.84273" lon="6.96561">
        <ele>999.2776</ele>
        <time>2016-07-17T14:14:36.136Z</time>
      </trkpt>
      <trkpt lat="47.84284" lon="6.96553">
        <ele>1001.1552</ele>
        <time>2016-07-17T14:14:49.136Z</time>
      </trkpt>
      <trkpt lat="47.84295" lon="6.96546">
        <ele>1002</ele>
        <time>2016-07-17T14:15:01.136Z</time>
      </trkpt>
      <trkpt lat="47.84308" lon="6.96537">
        <ele>1002.9776</ele>
        <time>2016-07-17T14:15:13.136Z</time>
      </trkpt>
      <trkpt lat="47.84317" lon="6.9653">
        <ele>1005</ele>
        <time>2016-07-17T14:15:25.136Z</time>
      </trkpt>
      <trkpt lat="47.84327" lon="6.96525">
        <ele>1005.7552</ele>
        <time>2016-07-17T14:15:37.136Z</time>
      </trkpt>
      <trkpt lat="47.84336" lon="6.96515">
        <ele>1008.1552</ele>
        <time>2016-07-17T14:15:49.136Z</time>
      </trkpt>
      <trkpt lat="47.84346" lon="6.96503">
        <ele>1010.5552</ele>
        <time>2016-07-17T14:16:01.136Z</time>
      </trkpt>
      <trkpt lat="47.84353" lon="6.96492">
        <ele>1012.9552</ele>
        <time>2016-07-17T14:16:13.136Z</time>
      </trkpt>
      <trkpt lat="47.8436" lon="6.96481">
        <ele>1013.2870267702</ele>
        <time>2016-07-17T14:16:56.236Z</time>
      </trkpt>
      <trkpt lat="47.84366" lon="6.96467">
        <ele>1014.0758280514</ele>
        <time>2016-07-17T14:17:04.136Z</time>
      </trkpt>
      <trkpt lat="47.84368" lon="6.9645">
        <ele>1017</ele>
        <time>2016-07-17T14:17:24.136Z</time>
      </trkpt>
      <trkpt lat="47.84374" lon="6.96435">
        <ele>1017</ele>
        <time>2016-07-17T14:17:36.136Z</time>
      </trkpt>
      <trkpt lat="47.84375" lon="6.96418">
        <ele>1017.4776</ele>
        <time>2016-07-17T14:17:48.136Z</time>
      </trkpt>
      <trkpt lat="47.84383" lon="6.96404">
        <ele>1018.3555554417</ele>
        <time>2016-07-17T14:19:05.136Z</time>
      </trkpt>
      <trkpt lat="47.84384" lon="6.96382">
        <ele>1020.37859968</ele>
        <time>2016-07-17T14:19:17.136Z</time>
      </trkpt>
      <trkpt lat="47.84389" lon="6.96368">
        <ele>1021.3568426316</ele>
        <time>2016-07-17T14:19:25.136Z</time>
      </trkpt>
      <trkpt lat="47.84389" lon="6.96349">
        <ele>1023.7559557138</ele>
        <time>2016-07-17T14:19:37.136Z</time>
      </trkpt>
      <trkpt lat="47.8439" lon="6.96333">
        <ele>1025</ele>
        <time>2016-07-17T14:19:49.136Z</time>
      </trkpt>
      <trkpt lat="47.84394" lon="6.96318">
        <ele>1028.9104894819</ele>
        <time>2016-07-17T14:20:03.136Z</time>
      </trkpt>
      <trkpt lat="47.844" lon="6.96306">
        <ele>1029.3552</ele>
        <time>2016-07-17T14:20:15.136Z</time>
      </trkpt>
      <trkpt lat="47.84407" lon="6.9629">
        <ele>1031.3776</ele>
        <time>2016-07-17T14:20:27.136Z</time>
      </trkpt>
      <trkpt lat="47.84413" lon="6.96278">
        <ele>1032</ele>
        <time>2016-07-17T14:20:35.136Z</time>
      </trkpt>
      <trkpt lat="47.84419" lon="6.96262">
        <ele>1032.3776</ele>
        <time>2016-07-17T14:20:47.136Z</time>
      </trkpt>
      <trkpt lat="47.84427" lon="6.96248">
        <ele>1034.1552</ele>
        <time>2016-07-17T14:20:59.136Z</time>
      </trkpt>
      <trkpt lat="47.84434" lon="6.96233">
        <ele>1035.7776</ele>
        <time>2016-07-17T14:21:11.136Z</time>
      </trkpt>
      <trkpt lat="47.8444" lon="6.96216">
        <ele>1037.9552</ele>
        <time>2016-07-17T14:21:23.136Z</time>
      </trkpt>
      <trkpt lat="47.84446" lon="6.96202">
        <ele>1039.1776</ele>
        <time>2016-07-17T14:21:35.136Z</time>
      </trkpt>
      <trkpt lat="47.84457" lon="6.96188">
        <ele>1040.4776</ele>
        <time>2016-07-17T14:21:48.136Z</time>
      </trkpt>
      <trkpt lat="47.8446" lon="6.96172">
        <ele>1041.6776</ele>
        <time>2016-07-17T14:22:00.136Z</time>
      </trkpt>
      <trkpt lat="47.84465" lon="6.96156">
        <ele>1042.8776</ele>
        <time>2016-07-17T14:22:12.136Z</time>
      </trkpt>
      <trkpt lat="47.84471" lon="6.96144">
        <ele>1044.0776</ele>
        <time>2016-07-17T14:22:24.136Z</time>
      </trkpt>
      <trkpt lat="47.8448" lon="6.96129">
        <ele>1045.6776</ele>
        <time>2016-07-17T14:22:40.136Z</time>
      </trkpt>
      <trkpt lat="47.84486" lon="6.96112">
        <ele>1046</ele>
        <time>2016-07-17T14:22:52.136Z</time>
      </trkpt>
      <trkpt lat="47.84494" lon="6.961">
        <ele>1048.0776</ele>
        <time>2016-07-17T14:23:04.136Z</time>
      </trkpt>
      <trkpt lat="47.84505" lon="6.96094">
        <ele>1049.2776</ele>
        <time>2016-07-17T14:23:16.136Z</time>
      </trkpt>
      <trkpt lat="47.84518" lon="6.96084">
        <ele>1051.1552</ele>
        <time>2016-07-17T14:23:29.136Z</time>
      </trkpt>
      <trkpt lat="47.84529" lon="6.96073">
        <ele>1052.7776</ele>
        <time>2016-07-17T14:23:41.136Z</time>
      </trkpt>
      <trkpt lat="47.8454" lon="6.96066">
        <ele>1053.9776</ele>
        <time>2016-07-17T14:23:53.136Z</time>
      </trkpt>
      <trkpt lat="47.84551" lon="6.96065">
        <ele>1056.1776</ele>
        <time>2016-07-17T14:24:05.136Z</time>
      </trkpt>
      <trkpt lat="47.84562" lon="6.9606">
        <ele>1057.7552</ele>
        <time>2016-07-17T14:24:17.136Z</time>
      </trkpt>
      <trkpt lat="47.84572" lon="6.96054">
        <ele>1059</ele>
        <time>2016-07-17T14:24:29.136Z</time>
      </trkpt>
      <trkpt lat="47.84584" lon="6.96044">
        <ele>1059.7776</ele>
        <time>2016-07-17T14:24:41.136Z</time>
      </trkpt>
      <trkpt lat="47.84592" lon="6.96035">
        <ele>1060.5776</ele>
        <time>2016-07-17T14:24:49.136Z</time>
      </trkpt>
      <trkpt lat="47.846" lon="6.96024">
        <ele>1061.7776</ele>
        <time>2016-07-17T14:25:01.136Z</time>
      </trkpt>
      <trkpt lat="47.84608" lon="6.96014">
        <ele>1062</ele>
        <time>2016-07-17T14:25:09.136Z</time>
      </trkpt>
      <trkpt lat="47.84613" lon="6.95998">
        <ele>1063.5552</ele>
        <time>2016-07-17T14:25:21.136Z</time>
      </trkpt>
      <trkpt lat="47.84618" lon="6.95985">
        <ele>1064.9776</ele>
        <time>2016-07-17T14:25:33.136Z</time>
      </trkpt>
      <trkpt lat="47.84626" lon="6.95968">
        <ele>1065</ele>
        <time>2016-07-17T14:25:45.136Z</time>
      </trkpt>
      <trkpt lat="47.84636" lon="6.95956">
        <ele>1065.7776</ele>
        <time>2016-07-17T14:26:01.136Z</time>
      </trkpt>
      <trkpt lat="47.84643" lon="6.95943">
        <ele>1066</ele>
        <time>2016-07-17T14:26:09.136Z</time>
      </trkpt>
      <trkpt lat="47.84648" lon="6.95928">
        <ele>1066.3782215794</ele>
        <time>2016-07-17T14:26:17.136Z</time>
      </trkpt>
      <trkpt lat="47.84658" lon="6.95917">
        <ele>1067</ele>
        <time>2016-07-17T14:26:25.136Z</time>
      </trkpt>
      <trkpt lat="47.84669" lon="6.95912">
        <ele>1067.3776</ele>
        <time>2016-07-17T14:26:37.136Z</time>
      </trkpt>
      <trkpt lat="47.84681" lon="6.95905">
        <ele>1068</ele>
        <time>2016-07-17T14:26:53.136Z</time>
      </trkpt>
      <trkpt lat="47.84695" lon="6.959">
        <ele>1066.8224</ele>
        <time>2016-07-17T14:27:05.136Z</time>
      </trkpt>
      <trkpt lat="47.84708" lon="6.95904">
        <ele>1066</ele>
        <time>2016-07-17T14:27:18.136Z</time>
      </trkpt>
      <trkpt lat="47.84721" lon="6.95899">
        <ele>1067.3552</ele>
        <time>2016-07-17T14:27:30.136Z</time>
      </trkpt>
      <trkpt lat="47.84737" lon="6.95897">
        <ele>1068.677921975</ele>
        <time>2016-07-17T14:27:50.136Z</time>
      </trkpt>
      <trkpt lat="47.8475" lon="6.95896">
        <ele>1068.1225224833</ele>
        <time>2016-07-17T14:28:22.136Z</time>
      </trkpt>
      <trkpt lat="47.84747" lon="6.9588">
        <ele>1070.5776</ele>
        <time>2016-07-17T14:29:09.136Z</time>
      </trkpt>
      <trkpt lat="47.84752" lon="6.95865">
        <ele>1072.5552</ele>
        <time>2016-07-17T14:29:21.136Z</time>
      </trkpt>
      <trkpt lat="47.84762" lon="6.95869">
        <ele>1073</ele>
        <time>2016-07-17T14:29:33.136Z</time>
      </trkpt>
      <trkpt lat="47.84752" lon="6.95864">
        <ele>1073</ele>
        <time>2016-07-17T14:29:50.136Z</time>
      </trkpt>
      <trkpt lat="47.84744" lon="6.95854">
        <ele>1072.9776</ele>
        <time>2016-07-17T14:31:13.136Z</time>
      </trkpt>
      <trkpt lat="47.84743" lon="6.95839">
        <ele>1072.4224</ele>
        <time>2016-07-17T14:31:29.136Z</time>
      </trkpt>
      <trkpt lat="47.84736" lon="6.9582">
        <ele>1072.75719936</ele>
        <time>2016-07-17T14:31:47.136Z</time>
      </trkpt>
      <trkpt lat="47.84728" lon="6.95805">
        <ele>1074.5780218431</ele>
        <time>2016-07-17T14:31:59.136Z</time>
      </trkpt>
      <trkpt lat="47.84722" lon="6.95789">
        <ele>1075</ele>
        <time>2016-07-17T14:32:11.136Z</time>
      </trkpt>
      <trkpt lat="47.84716" lon="6.95775">
        <ele>1075</ele>
        <time>2016-07-17T14:32:23.136Z</time>
      </trkpt>
      <trkpt lat="47.84709" lon="6.95762">
        <ele>1074</ele>
        <time>2016-07-17T14:32:35.136Z</time>
      </trkpt>
      <trkpt lat="47.84705" lon="6.95746">
        <ele>1074</ele>
        <time>2016-07-17T14:32:43.136Z</time>
      </trkpt>
      <trkpt lat="47.84695" lon="6.95724">
        <ele>1075.3769771765</ele>
        <time>2016-07-17T14:32:57.136Z</time>
      </trkpt>
      <trkpt lat="47.8469" lon="6.95712">
        <ele>1076.1776</ele>
        <time>2016-07-17T14:33:05.136Z</time>
      </trkpt>
      <trkpt lat="47.84691" lon="6.95695">
        <ele>1077</ele>
        <time>2016-07-17T14:33:21.136Z</time>
      </trkpt>
      <trkpt lat="47.84684" lon="6.95678">
        <ele>1078.3776</ele>
        <time>2016-07-17T14:33:47.136Z</time>
      </trkpt>
      <trkpt lat="47.84681" lon="6.9566">
        <ele>1079.4776</ele>
        <time>2016-07-17T14:33:58.136Z</time>
      </trkpt>
      <trkpt lat="47.84673" lon="6.95638">
        <ele>1081.3552</ele>
        <time>2016-07-17T14:34:10.136Z</time>
      </trkpt>
      <trkpt lat="47.8467" lon="6.9562">
        <ele>1082</ele>
        <time>2016-07-17T14:34:27.136Z</time>
      </trkpt>
      <trkpt lat="47.84667" lon="6.95603">
        <ele>1082</ele>
        <time>2016-07-17T14:34:35.136Z</time>
      </trkpt>
      <trkpt lat="47.84669" lon="6.95584">
        <ele>1082</ele>
        <time>2016-07-17T14:34:43.136Z</time>
      </trkpt>
      <trkpt lat="47.8467" lon="6.95569">
        <ele>1080.9317165694</ele>
        <time>2016-07-17T14:34:54.136Z</time>
      </trkpt>
      <trkpt lat="47.84669" lon="6.95551">
        <ele>1080.1236362837</ele>
        <time>2016-07-17T14:35:02.136Z</time>
      </trkpt>
      <trkpt lat="47.84672" lon="6.95533">
        <ele>1079.9270348777</ele>
        <time>2016-07-17T14:35:14.136Z</time>
      </trkpt>
      <trkpt lat="47.84671" lon="6.95515">
        <ele>1078.3224</ele>
        <time>2016-07-17T14:35:30.136Z</time>
      </trkpt>
      <trkpt lat="47.8467" lon="6.95495">
        <ele>1076.2507936508</ele>
        <time>2016-07-17T14:35:47.136Z</time>
      </trkpt>
      <trkpt lat="47.84666" lon="6.95478">
        <ele>1073.5096774194</ele>
        <time>2016-07-17T14:35:57.136Z</time>
      </trkpt>
      <trkpt lat="47.84667" lon="6.95458">
        <ele>1071</ele>
        <time>2016-07-17T14:36:09.137Z</time>
      </trkpt>
      <trkpt lat="47.84664" lon="6.9543">
        <ele>1068.6648656129</ele>
        <time>2016-07-17T14:36:21.136Z</time>
      </trkpt>
      <trkpt lat="47.84668" lon="6.95404">
        <ele>1066.6439565695</ele>
        <time>2016-07-17T14:36:30.137Z</time>
      </trkpt>
      <trkpt lat="47.84665" lon="6.9539">
        <ele>1066</ele>
        <time>2016-07-17T14:36:42.136Z</time>
      </trkpt>
      <trkpt lat="47.84669" lon="6.95371">
        <ele>1064.6448</ele>
        <time>2016-07-17T14:36:55.136Z</time>
      </trkpt>
      <trkpt lat="47.84676" lon="6.95355">
        <ele>1063.0448</ele>
        <time>2016-07-17T14:37:03.136Z</time>
      </trkpt>
      <trkpt lat="47.84678" lon="6.95336">
        <ele>1064.1776</ele>
        <time>2016-07-17T14:37:15.136Z</time>
      </trkpt>
      <trkpt lat="47.84684" lon="6.9532">
        <ele>1065</ele>
        <time>2016-07-17T14:37:28.136Z</time>
      </trkpt>
      <trkpt lat="47.84687" lon="6.95305">
        <ele>1065</ele>
        <time>2016-07-17T14:37:40.136Z</time>
      </trkpt>
      <trkpt lat="47.84691" lon="6.95289">
        <ele>1065</ele>
        <time>2016-07-17T14:37:52.136Z</time>
      </trkpt>
      <trkpt lat="47.84691" lon="6.95268">
        <ele>1064</ele>
        <time>2016-07-17T14:38:04.136Z</time>
      </trkpt>
      <trkpt lat="47.84694" lon="6.9525">
        <ele>1064</ele>
        <time>2016-07-17T14:38:12.136Z</time>
      </trkpt>
      <trkpt lat="47.84697" lon="6.95235">
        <ele>1063.3224</ele>
        <time>2016-07-17T14:38:20.136Z</time>
      </trkpt>
      <trkpt lat="47.84695" lon="6.9522">
        <ele>1063</ele>
        <time>2016-07-17T14:38:28.136Z</time>
      </trkpt>
      <trkpt lat="47.84692" lon="6.95202">
        <ele>1062.3224</ele>
        <time>2016-07-17T14:38:40.136Z</time>
      </trkpt>
      <trkpt lat="47.84694" lon="6.95182">
        <ele>1062</ele>
        <time>2016-07-17T14:38:52.136Z</time>
      </trkpt>
      <trkpt lat="47.84698" lon="6.95166">
        <ele>1060.9224</ele>
        <time>2016-07-17T14:39:04.136Z</time>
      </trkpt>
      <trkpt lat="47.84704" lon="6.95152">
        <ele>1060.1224</ele>
        <time>2016-07-17T14:39:12.136Z</time>
      </trkpt>
      <trkpt lat="47.84711" lon="6.9514">
        <ele>1059.3224</ele>
        <time>2016-07-17T14:39:20.136Z</time>
      </trkpt>
      <trkpt lat="47.84717" lon="6.95126">
        <ele>1059.4776</ele>
        <time>2016-07-17T14:39:28.136Z</time>
      </trkpt>
      <trkpt lat="47.84723" lon="6.95111">
        <ele>1060.6776</ele>
        <time>2016-07-17T14:39:40.136Z</time>
      </trkpt>
      <trkpt lat="47.84731" lon="6.95099">
        <ele>1061.8776</ele>
        <time>2016-07-17T14:39:52.136Z</time>
      </trkpt>
      <trkpt lat="47.84738" lon="6.95082">
        <ele>1061.0776</ele>
        <time>2016-07-17T14:40:04.136Z</time>
      </trkpt>
      <trkpt lat="47.84743" lon="6.95062">
        <ele>1062</ele>
        <time>2016-07-17T14:40:16.136Z</time>
      </trkpt>
      <trkpt lat="47.84748" lon="6.95049">
        <ele>1061.9224</ele>
        <time>2016-07-17T14:40:24.136Z</time>
      </trkpt>
      <trkpt lat="47.84753" lon="6.95025">
        <ele>1061.5776</ele>
        <time>2016-07-17T14:40:39.136Z</time>
      </trkpt>
      <trkpt lat="47.84751" lon="6.9501">
        <ele>1062.3776</ele>
        <time>2016-07-17T14:40:47.136Z</time>
      </trkpt>
      <trkpt lat="47.84748" lon="6.94994">
        <ele>1062.8224</ele>
        <time>2016-07-17T14:40:55.136Z</time>
      </trkpt>
      <trkpt lat="47.84747" lon="6.94977">
        <ele>1062.0224</ele>
        <time>2016-07-17T14:41:03.136Z</time>
      </trkpt>
      <trkpt lat="47.84747" lon="6.94962">
        <ele>1061.3224</ele>
        <time>2016-07-17T14:41:10.136Z</time>
      </trkpt>
      <trkpt lat="47.84744" lon="6.94944">
        <ele>1060.1224</ele>
        <time>2016-07-17T14:41:22.136Z</time>
      </trkpt>
      <trkpt lat="47.84743" lon="6.94927">
        <ele>1060</ele>
        <time>2016-07-17T14:41:30.136Z</time>
      </trkpt>
      <trkpt lat="47.84743" lon="6.94907">
        <ele>1060</ele>
        <time>2016-07-17T14:41:43.136Z</time>
      </trkpt>
      <trkpt lat="47.84745" lon="6.94889">
        <ele>1060</ele>
        <time>2016-07-17T14:41:56.136Z</time>
      </trkpt>
      <trkpt lat="47.84742" lon="6.9487">
        <ele>1060</ele>
        <time>2016-07-17T14:42:07.136Z</time>
      </trkpt>
      <trkpt lat="47.84742" lon="6.94849">
        <ele>1060.6776</ele>
        <time>2016-07-17T14:42:20.136Z</time>
      </trkpt>
      <trkpt lat="47.84745" lon="6.94827">
        <ele>1061</ele>
        <time>2016-07-17T14:42:33.136Z</time>
      </trkpt>
      <trkpt lat="47.84751" lon="6.94811">
        <ele>1061.0776</ele>
        <time>2016-07-17T14:42:44.136Z</time>
      </trkpt>
      <trkpt lat="47.84764" lon="6.94794">
        <ele>1062.8776</ele>
        <time>2016-07-17T14:43:02.136Z</time>
      </trkpt>
      <trkpt lat="47.84767" lon="6.94776">
        <ele>1063.6722222222</ele>
        <time>2016-07-17T14:43:10.136Z</time>
      </trkpt>
      <trkpt lat="47.84773" lon="6.94764">
        <ele>1064</ele>
        <time>2016-07-17T14:43:20.136Z</time>
      </trkpt>
      <trkpt lat="47.84778" lon="6.94746">
        <ele>1064</ele>
        <time>2016-07-17T14:43:32.136Z</time>
      </trkpt>
      <trkpt lat="47.84778" lon="6.94728">
        <ele>1065</ele>
        <time>2016-07-17T14:43:44.136Z</time>
      </trkpt>
      <trkpt lat="47.84777" lon="6.94711">
        <ele>1065</ele>
        <time>2016-07-17T14:43:53.136Z</time>
      </trkpt>
      <trkpt lat="47.84781" lon="6.94687">
        <ele>1066.0776</ele>
        <time>2016-07-17T14:44:04.136Z</time>
      </trkpt>
      <trkpt lat="47.84784" lon="6.94673">
        <ele>1067.2776</ele>
        <time>2016-07-17T14:44:16.136Z</time>
      </trkpt>
      <trkpt lat="47.84787" lon="6.94653">
        <ele>1068.9552</ele>
        <time>2016-07-17T14:44:28.136Z</time>
      </trkpt>
      <trkpt lat="47.84789" lon="6.94639">
        <ele>1071.356556122</ele>
        <time>2016-07-17T14:44:40.136Z</time>
      </trkpt>
      <trkpt lat="47.84787" lon="6.94622">
        <ele>1079.6776</ele>
        <time>2016-07-17T14:45:20.136Z</time>
      </trkpt>
      <trkpt lat="47.84777" lon="6.94628">
        <ele>1086.1328</ele>
        <time>2016-07-17T14:45:57.136Z</time>
      </trkpt>
      <trkpt lat="47.84778" lon="6.94609">
        <ele>1090.356556122</ele>
        <time>2016-07-17T14:46:20.136Z</time>
      </trkpt>
      <trkpt lat="47.84766" lon="6.94609">
        <ele>1094.5552</ele>
        <time>2016-07-17T14:46:41.136Z</time>
      </trkpt>
      <trkpt lat="47.84768" lon="6.94595">
        <ele>1095.5776</ele>
        <time>2016-07-17T14:46:49.136Z</time>
      </trkpt>
      <trkpt lat="47.84776" lon="6.94584">
        <ele>1098</ele>
        <time>2016-07-17T14:47:05.136Z</time>
      </trkpt>
      <trkpt lat="47.84783" lon="6.9457">
        <ele>1099.7552</ele>
        <time>2016-07-17T14:47:22.136Z</time>
      </trkpt>
      <trkpt lat="47.84789" lon="6.94556">
        <ele>1102.9552</ele>
        <time>2016-07-17T14:47:38.136Z</time>
      </trkpt>
      <trkpt lat="47.84793" lon="6.94541">
        <ele>1106.0776776528</ele>
        <time>2016-07-17T14:47:54.136Z</time>
      </trkpt>
      <trkpt lat="47.84798" lon="6.94516">
        <ele>1107.2783214476</ele>
        <time>2016-07-17T14:48:06.136Z</time>
      </trkpt>
      <trkpt lat="47.84807" lon="6.94509">
        <ele>1109.7552</ele>
        <time>2016-07-17T14:48:22.136Z</time>
      </trkpt>
      <trkpt lat="47.84816" lon="6.94496">
        <ele>1111</ele>
        <time>2016-07-17T14:48:38.136Z</time>
      </trkpt>
      <trkpt lat="47.84824" lon="6.9448">
        <ele>1113.9552</ele>
        <time>2016-07-17T14:48:58.136Z</time>
      </trkpt>
      <trkpt lat="47.84829" lon="6.94467">
        <ele>1115.6776</ele>
        <time>2016-07-17T14:49:10.136Z</time>
      </trkpt>
      <trkpt lat="47.84838" lon="6.94454">
        <ele>1116.8776</ele>
        <time>2016-07-17T14:49:22.136Z</time>
      </trkpt>
      <trkpt lat="47.8485" lon="6.94451">
        <ele>1118</ele>
        <time>2016-07-17T14:49:42.136Z</time>
      </trkpt>
      <trkpt lat="47.84855" lon="6.94436">
        <ele>1119.4776</ele>
        <time>2016-07-17T14:49:58.136Z</time>
      </trkpt>
      <trkpt lat="47.84859" lon="6.94419">
        <ele>1120.6776</ele>
        <time>2016-07-17T14:50:10.136Z</time>
      </trkpt>
      <trkpt lat="47.84866" lon="6.94404">
        <ele>1121</ele>
        <time>2016-07-17T14:50:22.136Z</time>
      </trkpt>
      <trkpt lat="47.8487" lon="6.94389">
        <ele>1121</ele>
        <time>2016-07-17T14:50:30.136Z</time>
      </trkpt>
      <trkpt lat="47.84873" lon="6.94375">
        <ele>1122.7552</ele>
        <time>2016-07-17T14:50:42.136Z</time>
      </trkpt>
      <trkpt lat="47.84876" lon="6.94355">
        <ele>1125.4776</ele>
        <time>2016-07-17T14:50:58.136Z</time>
      </trkpt>
      <trkpt lat="47.84883" lon="6.94344">
        <ele>1126</ele>
        <time>2016-07-17T14:51:06.136Z</time>
      </trkpt>
      <trkpt lat="47.84892" lon="6.94328">
        <ele>1126.9552</ele>
        <time>2016-07-17T14:51:18.136Z</time>
      </trkpt>
      <trkpt lat="47.84903" lon="6.94315">
        <ele>1128</ele>
        <time>2016-07-17T14:51:30.136Z</time>
      </trkpt>
      <trkpt lat="47.8491" lon="6.94303">
        <ele>1129.5552</ele>
        <time>2016-07-17T14:51:46.136Z</time>
      </trkpt>
      <trkpt lat="47.84915" lon="6.94291">
        <ele>1130.5224</ele>
        <time>2016-07-17T14:51:58.136Z</time>
      </trkpt>
      <trkpt lat="47.84925" lon="6.94275">
        <ele>1131.3552</ele>
        <time>2016-07-17T14:52:10.136Z</time>
      </trkpt>
      <trkpt lat="47.84932" lon="6.94264">
        <ele>1132</ele>
        <time>2016-07-17T14:52:18.136Z</time>
      </trkpt>
      <trkpt lat="47.8494" lon="6.94254">
        <ele>1132.2776</ele>
        <time>2016-07-17T14:52:26.136Z</time>
      </trkpt>
      <trkpt lat="47.84952" lon="6.94242">
        <ele>1133</ele>
        <time>2016-07-17T14:52:38.136Z</time>
      </trkpt>
      <trkpt lat="47.84965" lon="6.94234">
        <ele>1133</ele>
        <time>2016-07-17T14:52:50.136Z</time>
      </trkpt>
      <trkpt lat="47.84975" lon="6.94229">
        <ele>1132.42189952</ele>
        <time>2016-07-17T14:52:59.141Z</time>
      </trkpt>
      <trkpt lat="47.84986" lon="6.94219">
        <ele>1132</ele>
        <time>2016-07-17T14:53:12.136Z</time>
      </trkpt>
      <trkpt lat="47.84997" lon="6.94213">
        <ele>1132.6776</ele>
        <time>2016-07-17T14:53:20.136Z</time>
      </trkpt>
      <trkpt lat="47.8501" lon="6.94204">
        <ele>1135.5328</ele>
        <time>2016-07-17T14:53:35.136Z</time>
      </trkpt>
      <trkpt lat="47.85021" lon="6.94198">
        <ele>1138.7552</ele>
        <time>2016-07-17T14:53:47.136Z</time>
      </trkpt>
      <trkpt lat="47.8503" lon="6.94191">
        <ele>1141.7559557138</ele>
        <time>2016-07-17T14:54:07.136Z</time>
      </trkpt>
      <trkpt lat="47.85041" lon="6.94182">
        <ele>1146.1552</ele>
        <time>2016-07-17T14:54:29.136Z</time>
      </trkpt>
      <trkpt lat="47.85053" lon="6.94182">
        <ele>1148.3552</ele>
        <time>2016-07-17T14:54:45.136Z</time>
      </trkpt>
      <trkpt lat="47.85063" lon="6.94178">
        <ele>1151.5552</ele>
        <time>2016-07-17T14:55:01.136Z</time>
      </trkpt>
      <trkpt lat="47.85074" lon="6.94178">
        <ele>1154</ele>
        <time>2016-07-17T14:55:22.136Z</time>
      </trkpt>
      <trkpt lat="47.85081" lon="6.94162">
        <ele>1155.8776</ele>
        <time>2016-07-17T14:55:42.136Z</time>
      </trkpt>
      <trkpt lat="47.85096" lon="6.9414">
        <ele>1158.8777222386</ele>
        <time>2016-07-17T14:56:02.136Z</time>
      </trkpt>
      <trkpt lat="47.85099" lon="6.94118">
        <ele>1160.9562434226</ele>
        <time>2016-07-17T14:56:18.136Z</time>
      </trkpt>
      <trkpt lat="47.85109" lon="6.94103">
        <ele>1164</ele>
        <time>2016-07-17T14:56:34.136Z</time>
      </trkpt>
      <trkpt lat="47.85119" lon="6.94091">
        <ele>1165.5552</ele>
        <time>2016-07-17T14:56:51.136Z</time>
      </trkpt>
      <trkpt lat="47.85127" lon="6.94078">
        <ele>1167.9552</ele>
        <time>2016-07-17T14:57:03.136Z</time>
      </trkpt>
      <trkpt lat="47.85137" lon="6.94066">
        <ele>1170</ele>
        <time>2016-07-17T14:57:20.136Z</time>
      </trkpt>
      <trkpt lat="47.85146" lon="6.94055">
        <ele>1171.9552</ele>
        <time>2016-07-17T14:57:33.136Z</time>
      </trkpt>
      <trkpt lat="47.85154" lon="6.94045">
        <ele>1176.1552</ele>
        <time>2016-07-17T14:57:49.136Z</time>
      </trkpt>
      <trkpt lat="47.85162" lon="6.94029">
        <ele>1177.9776</ele>
        <time>2016-07-17T14:58:03.136Z</time>
      </trkpt>
      <trkpt lat="47.85169" lon="6.94007">
        <ele>1179.5566428952</ele>
        <time>2016-07-17T14:58:16.136Z</time>
      </trkpt>
      <trkpt lat="47.85173" lon="6.93993">
        <ele>1182</ele>
        <time>2016-07-17T14:59:14.136Z</time>
      </trkpt>
      <trkpt lat="47.85169" lon="6.93975">
        <ele>1182.75719936</ele>
        <time>2016-07-17T14:59:27.136Z</time>
      </trkpt>
      <trkpt lat="47.85166" lon="6.93955">
        <ele>1184.37859968</ele>
        <time>2016-07-17T14:59:37.136Z</time>
      </trkpt>
      <trkpt lat="47.85165" lon="6.93953">
        <ele>1184.9997070347</ele>
        <time>2016-07-17T15:12:03.136Z</time>
      </trkpt>
      <trkpt lat="47.8516" lon="6.93944">
        <ele>1185</ele>
        <time>2016-07-17T15:12:23.136Z</time>
      </trkpt>
      <trkpt lat="47.85153" lon="6.93927">
        <ele>1185</ele>
        <time>2016-07-17T15:12:35.136Z</time>
      </trkpt>
      <trkpt lat="47.85148" lon="6.93913">
        <ele>1185</ele>
        <time>2016-07-17T15:12:47.136Z</time>
      </trkpt>
      <trkpt lat="47.85143" lon="6.93899">
        <ele>1185</ele>
        <time>2016-07-17T15:12:55.136Z</time>
      </trkpt>
      <trkpt lat="47.85137" lon="6.93885">
        <ele>1185</ele>
        <time>2016-07-17T15:13:03.136Z</time>
      </trkpt>
      <trkpt lat="47.85129" lon="6.93869">
        <ele>1185</ele>
        <time>2016-07-17T15:13:15.136Z</time>
      </trkpt>
      <trkpt lat="47.85121" lon="6.93853">
        <ele>1186.9104</ele>
        <time>2016-07-17T15:13:27.136Z</time>
      </trkpt>
      <trkpt lat="47.85112" lon="6.93838">
        <ele>1189.6776</ele>
        <time>2016-07-17T15:13:39.136Z</time>
      </trkpt>
      <trkpt lat="47.85102" lon="6.93826">
        <ele>1190.8776</ele>
        <time>2016-07-17T15:13:51.136Z</time>
      </trkpt>
      <trkpt lat="47.85095" lon="6.93811">
        <ele>1192</ele>
        <time>2016-07-17T15:14:03.136Z</time>
      </trkpt>
      <trkpt lat="47.85089" lon="6.93796">
        <ele>1192</ele>
        <time>2016-07-17T15:14:11.136Z</time>
      </trkpt>
      <trkpt lat="47.85084" lon="6.9378">
        <ele>1190.6448</ele>
        <time>2016-07-17T15:14:19.136Z</time>
      </trkpt>
      <trkpt lat="47.85077" lon="6.93769">
        <ele>1189.5224</ele>
        <time>2016-07-17T15:14:27.136Z</time>
      </trkpt>
      <trkpt lat="47.85071" lon="6.93756">
        <ele>1189</ele>
        <time>2016-07-17T15:14:35.136Z</time>
      </trkpt>
      <trkpt lat="47.85065" lon="6.93743">
        <ele>1189</ele>
        <time>2016-07-17T15:14:43.136Z</time>
      </trkpt>
      <trkpt lat="47.85059" lon="6.9373">
        <ele>1189</ele>
        <time>2016-07-17T15:14:51.136Z</time>
      </trkpt>
      <trkpt lat="47.85052" lon="6.93718">
        <ele>1189</ele>
        <time>2016-07-17T15:14:59.136Z</time>
      </trkpt>
      <trkpt lat="47.85046" lon="6.93704">
        <ele>1189</ele>
        <time>2016-07-17T15:15:07.136Z</time>
      </trkpt>
      <trkpt lat="47.85039" lon="6.93692">
        <ele>1188.4448</ele>
        <time>2016-07-17T15:15:15.136Z</time>
      </trkpt>
      <trkpt lat="47.85031" lon="6.93681">
        <ele>1187</ele>
        <time>2016-07-17T15:15:23.136Z</time>
      </trkpt>
      <trkpt lat="47.85021" lon="6.93665">
        <ele>1187.2776</ele>
        <time>2016-07-17T15:15:35.136Z</time>
      </trkpt>
      <trkpt lat="47.85014" lon="6.93651">
        <ele>1188.0776</ele>
        <time>2016-07-17T15:15:43.136Z</time>
      </trkpt>
      <trkpt lat="47.85008" lon="6.93637">
        <ele>1188.8776</ele>
        <time>2016-07-17T15:15:51.136Z</time>
      </trkpt>
      <trkpt lat="47.85004" lon="6.93622">
        <ele>1188.3224</ele>
        <time>2016-07-17T15:15:59.136Z</time>
      </trkpt>
      <trkpt lat="47.84993" lon="6.93605">
        <ele>1188</ele>
        <time>2016-07-17T15:16:11.136Z</time>
      </trkpt>
      <trkpt lat="47.84985" lon="6.9359">
        <ele>1188</ele>
        <time>2016-07-17T15:16:19.136Z</time>
      </trkpt>
      <trkpt lat="47.84978" lon="6.93577">
        <ele>1188.9552</ele>
        <time>2016-07-17T15:16:27.136Z</time>
      </trkpt>
      <trkpt lat="47.84974" lon="6.93562">
        <ele>1190.2776</ele>
        <time>2016-07-17T15:16:35.136Z</time>
      </trkpt>
      <trkpt lat="47.84969" lon="6.93549">
        <ele>1191</ele>
        <time>2016-07-17T15:16:47.136Z</time>
      </trkpt>
      <trkpt lat="47.84963" lon="6.93534">
        <ele>1191</ele>
        <time>2016-07-17T15:16:59.136Z</time>
      </trkpt>
      <trkpt lat="47.84956" lon="6.9352">
        <ele>1189.2448</ele>
        <time>2016-07-17T15:17:11.136Z</time>
      </trkpt>
      <trkpt lat="47.84947" lon="6.93507">
        <ele>1187</ele>
        <time>2016-07-17T15:17:23.136Z</time>
      </trkpt>
      <trkpt lat="47.84941" lon="6.93489">
        <ele>1187.2776</ele>
        <time>2016-07-17T15:17:35.136Z</time>
      </trkpt>
      <trkpt lat="47.84935" lon="6.93471">
        <ele>1188.0776</ele>
        <time>2016-07-17T15:17:43.136Z</time>
      </trkpt>
      <trkpt lat="47.8493" lon="6.93454">
        <ele>1188.8776</ele>
        <time>2016-07-17T15:17:51.136Z</time>
      </trkpt>
      <trkpt lat="47.84924" lon="6.9344">
        <ele>1189.6776</ele>
        <time>2016-07-17T15:17:59.136Z</time>
      </trkpt>
      <trkpt lat="47.8492" lon="6.93419">
        <ele>1190</ele>
        <time>2016-07-17T15:18:11.136Z</time>
      </trkpt>
      <trkpt lat="47.8492" lon="6.93403">
        <ele>1190</ele>
        <time>2016-07-17T15:18:27.136Z</time>
      </trkpt>
      <trkpt lat="47.84918" lon="6.93386">
        <ele>1190.4448</ele>
        <time>2016-07-17T15:18:55.136Z</time>
      </trkpt>
      <trkpt lat="47.84915" lon="6.93367">
        <ele>1189</ele>
        <time>2016-07-17T15:19:07.136Z</time>
      </trkpt>
      <trkpt lat="47.84912" lon="6.93353">
        <ele>1189</ele>
        <time>2016-07-17T15:19:15.136Z</time>
      </trkpt>
      <trkpt lat="47.84906" lon="6.93339">
        <ele>1188.8448</ele>
        <time>2016-07-17T15:19:23.136Z</time>
      </trkpt>
      <trkpt lat="47.84902" lon="6.93324">
        <ele>1187.2448</ele>
        <time>2016-07-17T15:19:31.136Z</time>
      </trkpt>
      <trkpt lat="47.84899" lon="6.93309">
        <ele>1187</ele>
        <time>2016-07-17T15:19:39.136Z</time>
      </trkpt>
      <trkpt lat="47.84897" lon="6.93294">
        <ele>1187</ele>
        <time>2016-07-17T15:19:47.136Z</time>
      </trkpt>
      <trkpt lat="47.84894" lon="6.93274">
        <ele>1185.6448</ele>
        <time>2016-07-17T15:19:59.136Z</time>
      </trkpt>
      <trkpt lat="47.84889" lon="6.93253">
        <ele>1184.1224</ele>
        <time>2016-07-17T15:20:11.136Z</time>
      </trkpt>
      <trkpt lat="47.84887" lon="6.93237">
        <ele>1183.3224</ele>
        <time>2016-07-17T15:20:19.136Z</time>
      </trkpt>
      <trkpt lat="47.84882" lon="6.9322">
        <ele>1182.0448</ele>
        <time>2016-07-17T15:20:27.136Z</time>
      </trkpt>
      <trkpt lat="47.84879" lon="6.93202">
        <ele>1178.9672</ele>
        <time>2016-07-17T15:20:39.136Z</time>
      </trkpt>
      <trkpt lat="47.84872" lon="6.93182">
        <ele>1176.2448</ele>
        <time>2016-07-17T15:20:51.136Z</time>
      </trkpt>
      <trkpt lat="47.84866" lon="6.93161">
        <ele>1172.9224</ele>
        <time>2016-07-17T15:21:03.136Z</time>
      </trkpt>
      <trkpt lat="47.84862" lon="6.93142">
        <ele>1171.4448</ele>
        <time>2016-07-17T15:21:15.136Z</time>
      </trkpt>
      <trkpt lat="47.84857" lon="6.93126">
        <ele>1169.8448</ele>
        <time>2016-07-17T15:21:23.136Z</time>
      </trkpt>
      <trkpt lat="47.8485" lon="6.93113">
        <ele>1168.2448</ele>
        <time>2016-07-17T15:21:31.136Z</time>
      </trkpt>
      <trkpt lat="47.84842" lon="6.931">
        <ele>1165.8448</ele>
        <time>2016-07-17T15:21:43.136Z</time>
      </trkpt>
      <trkpt lat="47.84833" lon="6.93088">
        <ele>1163.1672</ele>
        <time>2016-07-17T15:21:55.136Z</time>
      </trkpt>
      <trkpt lat="47.84829" lon="6.9307">
        <ele>1161</ele>
        <time>2016-07-17T15:22:07.136Z</time>
      </trkpt>
      <trkpt lat="47.84829" lon="6.93055">
        <ele>1160.4448</ele>
        <time>2016-07-17T15:22:15.136Z</time>
      </trkpt>
      <trkpt lat="47.84829" lon="6.93036">
        <ele>1158.5224</ele>
        <time>2016-07-17T15:22:27.136Z</time>
      </trkpt>
      <trkpt lat="47.8483" lon="6.93021">
        <ele>1157</ele>
        <time>2016-07-17T15:23:51.136Z</time>
      </trkpt>
      <trkpt lat="47.84833" lon="6.93007">
        <ele>1155.6448</ele>
        <time>2016-07-17T15:23:59.136Z</time>
      </trkpt>
      <trkpt lat="47.84835" lon="6.92994">
        <ele>1154.0448</ele>
        <time>2016-07-17T15:24:07.136Z</time>
      </trkpt>
      <trkpt lat="47.84838" lon="6.92982">
        <ele>1152.1672</ele>
        <time>2016-07-17T15:24:15.136Z</time>
      </trkpt>
      <trkpt lat="47.84838" lon="6.92966">
        <ele>1148.0896</ele>
        <time>2016-07-17T15:24:27.136Z</time>
      </trkpt>
      <trkpt lat="47.84843" lon="6.9295">
        <ele>1144.6448</ele>
        <time>2016-07-17T15:24:39.136Z</time>
      </trkpt>
      <trkpt lat="47.84847" lon="6.92929">
        <ele>1142.2448</ele>
        <time>2016-07-17T15:24:51.136Z</time>
      </trkpt>
      <trkpt lat="47.84851" lon="6.92913">
        <ele>1137.8448</ele>
        <time>2016-07-17T15:25:03.136Z</time>
      </trkpt>
      <trkpt lat="47.84856" lon="6.92892">
        <ele>1135.3224</ele>
        <time>2016-07-17T15:25:19.136Z</time>
      </trkpt>
      <trkpt lat="47.84859" lon="6.92877">
        <ele>1133.5672</ele>
        <time>2016-07-17T15:25:27.136Z</time>
      </trkpt>
      <trkpt lat="47.84861" lon="6.92862">
        <ele>1131.7224</ele>
        <time>2016-07-17T15:25:35.136Z</time>
      </trkpt>
      <trkpt lat="47.84858" lon="6.92844">
        <ele>1130.5224</ele>
        <time>2016-07-17T15:25:47.136Z</time>
      </trkpt>
      <trkpt lat="47.84855" lon="6.92827">
        <ele>1127.9672</ele>
        <time>2016-07-17T15:25:59.136Z</time>
      </trkpt>
      <trkpt lat="47.84852" lon="6.9281">
        <ele>1125.2448</ele>
        <time>2016-07-17T15:26:11.136Z</time>
      </trkpt>
      <trkpt lat="47.8485" lon="6.92794">
        <ele>1124.3224</ele>
        <time>2016-07-17T15:26:19.136Z</time>
      </trkpt>
      <trkpt lat="47.84851" lon="6.92776">
        <ele>1123.0448</ele>
        <time>2016-07-17T15:26:27.136Z</time>
      </trkpt>
      <trkpt lat="47.84852" lon="6.92761">
        <ele>1121.7224</ele>
        <time>2016-07-17T15:26:35.136Z</time>
      </trkpt>
      <trkpt lat="47.8485" lon="6.92743">
        <ele>1120.5224</ele>
        <time>2016-07-17T15:26:47.136Z</time>
      </trkpt>
      <trkpt lat="47.84848" lon="6.92723">
        <ele>1117.9672</ele>
        <time>2016-07-17T15:26:59.136Z</time>
      </trkpt>
      <trkpt lat="47.84847" lon="6.92704">
        <ele>1116.5224</ele>
        <time>2016-07-17T15:27:07.136Z</time>
      </trkpt>
      <trkpt lat="47.84846" lon="6.92688">
        <ele>1116</ele>
        <time>2016-07-17T15:27:15.136Z</time>
      </trkpt>
      <trkpt lat="47.84847" lon="6.92673">
        <ele>1115.7672</ele>
        <time>2016-07-17T15:27:23.136Z</time>
      </trkpt>
      <trkpt lat="47.84849" lon="6.92653">
        <ele>1112.7224</ele>
        <time>2016-07-17T15:27:35.136Z</time>
      </trkpt>
      <trkpt lat="47.84853" lon="6.9264">
        <ele>1111.9224</ele>
        <time>2016-07-17T15:27:43.136Z</time>
      </trkpt>
      <trkpt lat="47.84855" lon="6.92624">
        <ele>1110.7224</ele>
        <time>2016-07-17T15:27:55.136Z</time>
      </trkpt>
      <trkpt lat="47.84855" lon="6.92603">
        <ele>1110</ele>
        <time>2016-07-17T15:28:07.136Z</time>
      </trkpt>
      <trkpt lat="47.84854" lon="6.92587">
        <ele>1109.7224</ele>
        <time>2016-07-17T15:28:15.136Z</time>
      </trkpt>
      <trkpt lat="47.84848" lon="6.92568">
        <ele>1109</ele>
        <time>2016-07-17T15:28:27.136Z</time>
      </trkpt>
      <trkpt lat="47.84841" lon="6.92553">
        <ele>1106.9672</ele>
        <time>2016-07-17T15:28:39.136Z</time>
      </trkpt>
      <trkpt lat="47.84831" lon="6.92541">
        <ele>1104.2448</ele>
        <time>2016-07-17T15:28:51.136Z</time>
      </trkpt>
      <trkpt lat="47.84823" lon="6.9253">
        <ele>1099.8448</ele>
        <time>2016-07-17T15:29:03.136Z</time>
      </trkpt>
      <trkpt lat="47.84828" lon="6.92516">
        <ele>1097.4448</ele>
        <time>2016-07-17T15:29:15.136Z</time>
      </trkpt>
      <trkpt lat="47.84837" lon="6.92508">
        <ele>1095.5224</ele>
        <time>2016-07-17T15:29:27.136Z</time>
      </trkpt>
      <trkpt lat="47.84849" lon="6.92507">
        <ele>1093.6448</ele>
        <time>2016-07-17T15:29:39.136Z</time>
      </trkpt>
      <trkpt lat="47.84859" lon="6.92502">
        <ele>1087.6448</ele>
        <time>2016-07-17T15:29:59.136Z</time>
      </trkpt>
      <trkpt lat="47.84862" lon="6.92485">
        <ele>1083</ele>
        <time>2016-07-17T15:30:35.136Z</time>
      </trkpt>
      <trkpt lat="47.84861" lon="6.92467">
        <ele>1082.3224</ele>
        <time>2016-07-17T15:30:59.136Z</time>
      </trkpt>
      <trkpt lat="47.8487" lon="6.92462">
        <ele>1083.1552</ele>
        <time>2016-07-17T15:32:23.136Z</time>
      </trkpt>
      <trkpt lat="47.84881" lon="6.92463">
        <ele>1086.1552</ele>
        <time>2016-07-17T15:33:03.136Z</time>
      </trkpt>
      <trkpt lat="47.84892" lon="6.92462">
        <ele>1091.0776</ele>
        <time>2016-07-17T15:33:23.136Z</time>
      </trkpt>
      <trkpt lat="47.84901" lon="6.92455">
        <ele>1096.6776</ele>
        <time>2016-07-17T15:33:59.136Z</time>
      </trkpt>
      <trkpt lat="47.84912" lon="6.92456">
        <ele>1099</ele>
        <time>2016-07-17T15:34:15.136Z</time>
      </trkpt>
      <trkpt lat="47.84922" lon="6.92454">
        <ele>1100.7552</ele>
        <time>2016-07-17T15:34:31.136Z</time>
      </trkpt>
      <trkpt lat="47.84932" lon="6.92454">
        <ele>1102.9552</ele>
        <time>2016-07-17T15:34:47.136Z</time>
      </trkpt>
      <trkpt lat="47.84943" lon="6.92448">
        <ele>1106.1552</ele>
        <time>2016-07-17T15:35:03.136Z</time>
      </trkpt>
      <trkpt lat="47.84954" lon="6.92445">
        <ele>1110.0776</ele>
        <time>2016-07-17T15:35:23.136Z</time>
      </trkpt>
      <trkpt lat="47.84965" lon="6.92445">
        <ele>1112.3552</ele>
        <time>2016-07-17T15:35:39.136Z</time>
      </trkpt>
      <trkpt lat="47.84976" lon="6.92444">
        <ele>1117</ele>
        <time>2016-07-17T15:36:03.136Z</time>
      </trkpt>
      <trkpt lat="47.84987" lon="6.92438">
        <ele>1117</ele>
        <time>2016-07-17T15:36:31.136Z</time>
      </trkpt>
      <trkpt lat="47.84995" lon="6.92427">
        <ele>1118.1552</ele>
        <time>2016-07-17T15:36:43.136Z</time>
      </trkpt>
      <trkpt lat="47.85007" lon="6.92422">
        <ele>1120</ele>
        <time>2016-07-17T15:36:59.136Z</time>
      </trkpt>
      <trkpt lat="47.85018" lon="6.92416">
        <ele>1120</ele>
        <time>2016-07-17T15:37:11.136Z</time>
      </trkpt>
      <trkpt lat="47.85031" lon="6.92407">
        <ele>1120.0776</ele>
        <time>2016-07-17T15:37:23.136Z</time>
      </trkpt>
      <trkpt lat="47.85044" lon="6.92397">
        <ele>1121.5552</ele>
        <time>2016-07-17T15:37:35.136Z</time>
      </trkpt>
      <trkpt lat="47.85056" lon="6.92387">
        <ele>1123.4776</ele>
        <time>2016-07-17T15:37:47.136Z</time>
      </trkpt>
      <trkpt lat="47.85068" lon="6.92378">
        <ele>1124.6776</ele>
        <time>2016-07-17T15:37:59.136Z</time>
      </trkpt>
      <trkpt lat="47.85079" lon="6.92374">
        <ele>1125</ele>
        <time>2016-07-17T15:38:11.136Z</time>
      </trkpt>
      <trkpt lat="47.85089" lon="6.92367">
        <ele>1125.1552</ele>
        <time>2016-07-17T15:38:23.136Z</time>
      </trkpt>
      <trkpt lat="47.85096" lon="6.92353">
        <ele>1127.2776</ele>
        <time>2016-07-17T15:38:35.136Z</time>
      </trkpt>
      <trkpt lat="47.85104" lon="6.92338">
        <ele>1128</ele>
        <time>2016-07-17T15:38:47.136Z</time>
      </trkpt>
      <trkpt lat="47.85116" lon="6.92327">
        <ele>1127.3224</ele>
        <time>2016-07-17T15:38:59.136Z</time>
      </trkpt>
      <trkpt lat="47.85129" lon="6.92319">
        <ele>1126.1224</ele>
        <time>2016-07-17T15:39:11.136Z</time>
      </trkpt>
      <trkpt lat="47.85138" lon="6.9231">
        <ele>1125.3224</ele>
        <time>2016-07-17T15:39:19.136Z</time>
      </trkpt>
      <trkpt lat="47.85148" lon="6.92301">
        <ele>1124.1224</ele>
        <time>2016-07-17T15:39:31.136Z</time>
      </trkpt>
      <trkpt lat="47.8516" lon="6.92293">
        <ele>1124.1552</ele>
        <time>2016-07-17T15:39:43.136Z</time>
      </trkpt>
      <trkpt lat="47.85172" lon="6.92286">
        <ele>1126</ele>
        <time>2016-07-17T15:39:55.136Z</time>
      </trkpt>
      <trkpt lat="47.85184" lon="6.92284">
        <ele>1125.9224</ele>
        <time>2016-07-17T15:40:03.136Z</time>
      </trkpt>
      <trkpt lat="47.85197" lon="6.92281">
        <ele>1124.7224</ele>
        <time>2016-07-17T15:40:15.136Z</time>
      </trkpt>
      <trkpt lat="47.85209" lon="6.92277">
        <ele>1124.9552</ele>
        <time>2016-07-17T15:40:27.136Z</time>
      </trkpt>
      <trkpt lat="47.85221" lon="6.92266">
        <ele>1126.6776</ele>
        <time>2016-07-17T15:40:39.136Z</time>
      </trkpt>
      <trkpt lat="47.85232" lon="6.9226">
        <ele>1127.8776</ele>
        <time>2016-07-17T15:40:51.136Z</time>
      </trkpt>
      <trkpt lat="47.85241" lon="6.92247">
        <ele>1130.4770772446</ele>
        <time>2016-07-17T15:41:07.136Z</time>
      </trkpt>
      <trkpt lat="47.85248" lon="6.92233">
        <ele>1134.4328</ele>
        <time>2016-07-17T15:41:27.136Z</time>
      </trkpt>
      <trkpt lat="47.85252" lon="6.92213">
        <ele>1134.6448</ele>
        <time>2016-07-17T15:41:59.136Z</time>
      </trkpt>
      <trkpt lat="47.85249" lon="6.92195">
        <ele>1134</ele>
        <time>2016-07-17T15:42:11.136Z</time>
      </trkpt>
      <trkpt lat="47.85251" lon="6.92177">
        <ele>1133.3224</ele>
        <time>2016-07-17T15:42:19.136Z</time>
      </trkpt>
      <trkpt lat="47.85252" lon="6.92161">
        <ele>1130.3672</ele>
        <time>2016-07-17T15:42:31.136Z</time>
      </trkpt>
      <trkpt lat="47.85252" lon="6.92147">
        <ele>1128.5224</ele>
        <time>2016-07-17T15:42:47.136Z</time>
      </trkpt>
      <trkpt lat="47.85252" lon="6.92132">
        <ele>1124.8448</ele>
        <time>2016-07-17T15:43:03.136Z</time>
      </trkpt>
      <trkpt lat="47.85257" lon="6.92119">
        <ele>1123.2448</ele>
        <time>2016-07-17T15:43:11.136Z</time>
      </trkpt>
      <trkpt lat="47.85265" lon="6.92106">
        <ele>1121.9224</ele>
        <time>2016-07-17T15:43:23.136Z</time>
      </trkpt>
      <trkpt lat="47.85271" lon="6.92086">
        <ele>1121</ele>
        <time>2016-07-17T15:43:35.136Z</time>
      </trkpt>
      <trkpt lat="47.85278" lon="6.92074">
        <ele>1120.9224</ele>
        <time>2016-07-17T15:43:43.136Z</time>
      </trkpt>
      <trkpt lat="47.85283" lon="6.92056">
        <ele>1119.1672</ele>
        <time>2016-07-17T15:43:55.136Z</time>
      </trkpt>
      <trkpt lat="47.85291" lon="6.92044">
        <ele>1117</ele>
        <time>2016-07-17T15:44:07.136Z</time>
      </trkpt>
      <trkpt lat="47.85303" lon="6.92038">
        <ele>1115.6448</ele>
        <time>2016-07-17T15:44:19.136Z</time>
      </trkpt>
      <trkpt lat="47.85313" lon="6.92027">
        <ele>1113.2448</ele>
        <time>2016-07-17T15:44:31.136Z</time>
      </trkpt>
      <trkpt lat="47.85323" lon="6.92019">
        <ele>1111.7672</ele>
        <time>2016-07-17T15:44:43.136Z</time>
      </trkpt>
      <trkpt lat="47.85334" lon="6.9201">
        <ele>1108.4448</ele>
        <time>2016-07-17T15:44:55.136Z</time>
      </trkpt>
      <trkpt lat="47.85347" lon="6.92002">
        <ele>1107.4776</ele>
        <time>2016-07-17T15:45:07.136Z</time>
      </trkpt>
      <trkpt lat="47.8536" lon="6.9199">
        <ele>1108.6776</ele>
        <time>2016-07-17T15:45:19.136Z</time>
      </trkpt>
      <trkpt lat="47.85371" lon="6.91982">
        <ele>1109.8776</ele>
        <time>2016-07-17T15:45:31.136Z</time>
      </trkpt>
      <trkpt lat="47.85382" lon="6.91981">
        <ele>1108.0448</ele>
        <time>2016-07-17T15:45:47.136Z</time>
      </trkpt>
      <trkpt lat="47.85393" lon="6.91975">
        <ele>1105.6448</ele>
        <time>2016-07-17T15:45:59.136Z</time>
      </trkpt>
      <trkpt lat="47.85402" lon="6.91961">
        <ele>1106</ele>
        <time>2016-07-17T15:46:15.136Z</time>
      </trkpt>
      <trkpt lat="47.85414" lon="6.91949">
        <ele>1105.0448</ele>
        <time>2016-07-17T15:46:27.136Z</time>
      </trkpt>
      <trkpt lat="47.85424" lon="6.91943">
        <ele>1104.2776</ele>
        <time>2016-07-17T15:46:35.136Z</time>
      </trkpt>
      <trkpt lat="47.85434" lon="6.9193">
        <ele>1105</ele>
        <time>2016-07-17T15:46:43.136Z</time>
      </trkpt>
      <trkpt lat="47.85442" lon="6.91917">
        <ele>1105</ele>
        <time>2016-07-17T15:46:55.136Z</time>
      </trkpt>
      <trkpt lat="47.85445" lon="6.91903">
        <ele>1105.4776</ele>
        <time>2016-07-17T15:47:07.136Z</time>
      </trkpt>
      <trkpt lat="47.85446" lon="6.91888">
        <ele>1106</ele>
        <time>2016-07-17T15:47:19.136Z</time>
      </trkpt>
      <trkpt lat="47.8545" lon="6.91867">
        <ele>1106</ele>
        <time>2016-07-17T15:47:31.136Z</time>
      </trkpt>
      <trkpt lat="47.85452" lon="6.91852">
        <ele>1105.3224</ele>
        <time>2016-07-17T15:47:39.136Z</time>
      </trkpt>
      <trkpt lat="47.85449" lon="6.91817">
        <ele>1105</ele>
        <time>2016-07-17T15:48:03.136Z</time>
      </trkpt>
      <trkpt lat="47.85458" lon="6.91808">
        <ele>1105</ele>
        <time>2016-07-17T15:48:11.136Z</time>
      </trkpt>
      <trkpt lat="47.85463" lon="6.91801">
        <ele>1104.3224</ele>
        <time>2016-07-17T15:48:19.136Z</time>
      </trkpt>
      <trkpt lat="47.85465" lon="6.91791">
        <ele>1104</ele>
        <time>2016-07-17T15:48:48.127Z</time>
      </trkpt>
    </trkseg>
  </trk>
</gpx>